<?xml version='1.0' encoding='UTF-8'?><gpx version="1.1" creator="JPX - https://github.com/jenetics/jpx" xmlns="http://www.topografix.com/GPX/1/1"><trk><trkseg><trkpt lat="44.0468585" lon="9.9642866"><ele>260.00000000000006</ele><time>2026-04-06T09:15:20.722Z</time></trkpt><trkpt lat="44.0468147" lon="9.9642116"><ele>260.0</ele><time>2026-04-06T09:15:25.709Z</time></trkpt><trkpt lat="44.0467676" lon="9.9641365"><ele>260.0</ele><time>2026-04-06T09:15:31.752Z</time></trkpt><trkpt lat="44.0467304" lon="9.9640485"><ele>260.0</ele><time>2026-04-06T09:15:39.735Z</time></trkpt><trkpt lat="44.0466794" lon="9.9639934"><ele>260.0</ele><time>2026-04-06T09:15:47.762Z</time></trkpt><trkpt lat="44.046645" lon="9.963913"><ele>260.00000000000006</ele><time>2026-04-06T09:15:56.762Z</time></trkpt><trkpt lat="44.0465821" lon="9.9638577"><ele>260.0</ele><time>2026-04-06T09:16:02.75Z</time></trkpt><trkpt lat="44.0465218" lon="9.9638175"><ele>258.8571428571429</ele><time>2026-04-06T09:16:08.754Z</time></trkpt><trkpt lat="44.0464595" lon="9.9637693"><ele>257.7142857142857</ele><time>2026-04-06T09:16:14.719Z</time></trkpt><trkpt lat="44.0463947" lon="9.9637838"><ele>256.57142857142856</ele><time>2026-04-06T09:16:20.764Z</time></trkpt><trkpt lat="44.0463548" lon="9.9638528"><ele>255.42857142857144</ele><time>2026-04-06T09:16:28.756Z</time></trkpt><trkpt lat="44.0463237" lon="9.9639332"><ele>254.28571428571428</ele><time>2026-04-06T09:16:38.757Z</time></trkpt><trkpt lat="44.0462868" lon="9.9640213"><ele>253.14285714285714</ele><time>2026-04-06T09:16:44.746Z</time></trkpt><trkpt lat="44.0462423" lon="9.9640928"><ele>252.0</ele><time>2026-04-06T09:16:51.055Z</time></trkpt><trkpt lat="44.0461832" lon="9.9641497"><ele>253.57142857142856</ele><time>2026-04-06T09:16:57.772Z</time></trkpt><trkpt lat="44.046133" lon="9.9642233"><ele>255.14285714285714</ele><time>2026-04-06T09:17:03.763Z</time></trkpt><trkpt lat="44.046087" lon="9.9642919"><ele>256.7142857142857</ele><time>2026-04-06T09:17:09.752Z</time></trkpt><trkpt lat="44.0460427" lon="9.9643584"><ele>258.2857142857143</ele><time>2026-04-06T09:17:14.759Z</time></trkpt><trkpt lat="44.0460086" lon="9.9644494"><ele>259.85714285714283</ele><time>2026-04-06T09:17:27.762Z</time></trkpt><trkpt lat="44.0460527" lon="9.9645195"><ele>261.42857142857144</ele><time>2026-04-06T09:17:38.77Z</time></trkpt><trkpt lat="44.0460704" lon="9.9646084"><ele>263.0</ele><time>2026-04-06T09:17:45.777Z</time></trkpt><trkpt lat="44.046101" lon="9.9647007"><ele>263.0</ele><time>2026-04-06T09:17:54.757Z</time></trkpt><trkpt lat="44.0461239" lon="9.9647833"><ele>263.0</ele><time>2026-04-06T09:18:01.786Z</time></trkpt><trkpt lat="44.0461394" lon="9.9648801"><ele>263.0</ele><time>2026-04-06T09:18:08.752Z</time></trkpt><trkpt lat="44.0461426" lon="9.9649682"><ele>263.0</ele><time>2026-04-06T09:18:14.759Z</time></trkpt><trkpt lat="44.0460972" lon="9.965041"><ele>263.0</ele><time>2026-04-06T09:18:22.684Z</time></trkpt><trkpt lat="44.046068" lon="9.9651265"><ele>263.0</ele><time>2026-04-06T09:18:32.752Z</time></trkpt><trkpt lat="44.0460486" lon="9.9652107"><ele>263.0</ele><time>2026-04-06T09:18:38.763Z</time></trkpt><trkpt lat="44.0460651" lon="9.9652972"><ele>262.42857142857144</ele><time>2026-04-06T09:19:01.751Z</time></trkpt><trkpt lat="44.0460065" lon="9.9653473"><ele>261.85714285714283</ele><time>2026-04-06T09:19:14.743Z</time></trkpt><trkpt lat="44.0459689" lon="9.9654277"><ele>261.2857142857143</ele><time>2026-04-06T09:19:24.752Z</time></trkpt><trkpt lat="44.0459019" lon="9.9654719"><ele>260.7142857142857</ele><time>2026-04-06T09:19:35.755Z</time></trkpt><trkpt lat="44.0458367" lon="9.9654936"><ele>260.1428571428571</ele><time>2026-04-06T09:19:41.754Z</time></trkpt><trkpt lat="44.0457772" lon="9.9655379"><ele>259.57142857142856</ele><time>2026-04-06T09:19:48.754Z</time></trkpt><trkpt lat="44.0457266" lon="9.9654615"><ele>259.0</ele><time>2026-04-06T09:19:57.766Z</time></trkpt><trkpt lat="44.0456596" lon="9.9654115"><ele>259.0</ele><time>2026-04-06T09:20:02.752Z</time></trkpt><trkpt lat="44.0455926" lon="9.9654418"><ele>259.0</ele><time>2026-04-06T09:20:08.751Z</time></trkpt><trkpt lat="44.0455227" lon="9.9654104"><ele>259.0</ele><time>2026-04-06T09:20:15.7Z</time></trkpt><trkpt lat="44.0454711" lon="9.9654688"><ele>259.0</ele><time>2026-04-06T09:20:35.74Z</time></trkpt><trkpt lat="44.045414" lon="9.9655197"><ele>259.0</ele><time>2026-04-06T09:20:53.772Z</time></trkpt><trkpt lat="44.0453836" lon="9.9656029"><ele>259.0</ele><time>2026-04-06T09:21:07.749Z</time></trkpt><trkpt lat="44.0453536" lon="9.9656901"><ele>259.0</ele><time>2026-04-06T09:21:14.745Z</time></trkpt><trkpt lat="44.045353" lon="9.9657948"><ele>259.0</ele><time>2026-04-06T09:21:19.721Z</time></trkpt><trkpt lat="44.045378" lon="9.9658844"><ele>259.0</ele><time>2026-04-06T09:21:23.75Z</time></trkpt><trkpt lat="44.0454286" lon="9.9659449"><ele>259.0</ele><time>2026-04-06T09:21:28.742Z</time></trkpt><trkpt lat="44.0454942" lon="9.9659926"><ele>259.0</ele><time>2026-04-06T09:21:34.762Z</time></trkpt><trkpt lat="44.0455552" lon="9.9660386"><ele>259.0</ele><time>2026-04-06T09:21:40.753Z</time></trkpt><trkpt lat="44.0456129" lon="9.9660905"><ele>259.0</ele><time>2026-04-06T09:21:48.646Z</time></trkpt><trkpt lat="44.0456849" lon="9.9660966"><ele>259.0</ele><time>2026-04-06T09:22:11.751Z</time></trkpt><trkpt lat="44.045752" lon="9.966118"><ele>259.85714285714283</ele><time>2026-04-06T09:22:16.758Z</time></trkpt><trkpt lat="44.045808" lon="9.9661663"><ele>260.7142857142857</ele><time>2026-04-06T09:22:25.754Z</time></trkpt><trkpt lat="44.0458574" lon="9.96623"><ele>261.57142857142856</ele><time>2026-04-06T09:22:31.756Z</time></trkpt><trkpt lat="44.0458883" lon="9.9663184"><ele>262.42857142857144</ele><time>2026-04-06T09:22:46.753Z</time></trkpt><trkpt lat="44.0459325" lon="9.9663977"><ele>263.2857142857143</ele><time>2026-04-06T09:22:54.767Z</time></trkpt><trkpt lat="44.0459777" lon="9.9664765"><ele>264.1428571428571</ele><time>2026-04-06T09:23:00.702Z</time></trkpt><trkpt lat="44.0460005" lon="9.9665693"><ele>265.0</ele><time>2026-04-06T09:23:06.764Z</time></trkpt><trkpt lat="44.0460251" lon="9.9666559"><ele>264.4285714285714</ele><time>2026-04-06T09:23:12.762Z</time></trkpt><trkpt lat="44.0460539" lon="9.9667476"><ele>263.85714285714283</ele><time>2026-04-06T09:23:19.743Z</time></trkpt><trkpt lat="44.0460844" lon="9.9668302"><ele>263.2857142857143</ele><time>2026-04-06T09:23:25.665Z</time></trkpt><trkpt lat="44.0460405" lon="9.966908"><ele>262.71428571428567</ele><time>2026-04-06T09:23:33.705Z</time></trkpt><trkpt lat="44.0459748" lon="9.966917"><ele>262.1428571428571</ele><time>2026-04-06T09:23:38.749Z</time></trkpt><trkpt lat="44.0459062" lon="9.9669314"><ele>261.57142857142856</ele><time>2026-04-06T09:23:44.744Z</time></trkpt><trkpt lat="44.0458398" lon="9.9669779"><ele>261.0</ele><time>2026-04-06T09:23:51.747Z</time></trkpt><trkpt lat="44.0457893" lon="9.9670447"><ele>259.57142857142856</ele><time>2026-04-06T09:23:56.743Z</time></trkpt><trkpt lat="44.0457297" lon="9.9670917"><ele>258.1428571428571</ele><time>2026-04-06T09:24:01.752Z</time></trkpt><trkpt lat="44.045666" lon="9.9671221"><ele>256.71428571428567</ele><time>2026-04-06T09:24:07.757Z</time></trkpt><trkpt lat="44.0456065" lon="9.9671572"><ele>255.28571428571428</ele><time>2026-04-06T09:24:16.764Z</time></trkpt><trkpt lat="44.0455614" lon="9.9672407"><ele>253.85714285714283</ele><time>2026-04-06T09:24:23.663Z</time></trkpt><trkpt lat="44.0455128" lon="9.9672994"><ele>252.4285714285714</ele><time>2026-04-06T09:24:29.764Z</time></trkpt><trkpt lat="44.0454526" lon="9.9673504"><ele>250.99999999999997</ele><time>2026-04-06T09:24:37.741Z</time></trkpt><trkpt lat="44.0453973" lon="9.9673964"><ele>250.99999999999997</ele><time>2026-04-06T09:24:48.761Z</time></trkpt><trkpt lat="44.0453395" lon="9.9674392"><ele>251.0</ele><time>2026-04-06T09:24:54.76Z</time></trkpt><trkpt lat="44.0452693" lon="9.9674334"><ele>250.99999999999997</ele><time>2026-04-06T09:25:01.759Z</time></trkpt><trkpt lat="44.0452018" lon="9.9674565"><ele>250.99999999999997</ele><time>2026-04-06T09:25:09.754Z</time></trkpt><trkpt lat="44.0451394" lon="9.9674707"><ele>251.0</ele><time>2026-04-06T09:25:17.749Z</time></trkpt><trkpt lat="44.0450859" lon="9.9675328"><ele>250.99999999999997</ele><time>2026-04-06T09:25:27.724Z</time></trkpt><trkpt lat="44.0450459" lon="9.9676102"><ele>250.99999999999997</ele><time>2026-04-06T09:25:33.72Z</time></trkpt><trkpt lat="44.0450032" lon="9.9676811"><ele>249.57142857142856</ele><time>2026-04-06T09:25:47.754Z</time></trkpt><trkpt lat="44.0450013" lon="9.9677828"><ele>248.14285714285714</ele><time>2026-04-06T09:26:10.679Z</time></trkpt><trkpt lat="44.0449848" lon="9.9678841"><ele>246.71428571428572</ele><time>2026-04-06T09:26:21.769Z</time></trkpt><trkpt lat="44.0449462" lon="9.9679645"><ele>245.28571428571428</ele><time>2026-04-06T09:26:25.761Z</time></trkpt><trkpt lat="44.0448993" lon="9.9680333"><ele>243.8571428571429</ele><time>2026-04-06T09:26:31.755Z</time></trkpt><trkpt lat="44.0448621" lon="9.9681093"><ele>242.42857142857144</ele><time>2026-04-06T09:27:01.787Z</time></trkpt><trkpt lat="44.0448695" lon="9.9682031"><ele>241.0</ele><time>2026-04-06T09:28:26.773Z</time></trkpt><trkpt lat="44.044864" lon="9.9682906"><ele>241.0</ele><time>2026-04-06T09:29:08.731Z</time></trkpt><trkpt lat="44.0448562" lon="9.968388"><ele>241.00000000000003</ele><time>2026-04-06T09:29:33.752Z</time></trkpt><trkpt lat="44.0448356" lon="9.9684918"><ele>241.0</ele><time>2026-04-06T09:29:38.762Z</time></trkpt><trkpt lat="44.0448109" lon="9.9685785"><ele>241.0</ele><time>2026-04-06T09:29:45.769Z</time></trkpt><trkpt lat="44.0447982" lon="9.9686763"><ele>241.00000000000003</ele><time>2026-04-06T09:30:00.771Z</time></trkpt><trkpt lat="44.0447682" lon="9.9687678"><ele>241.0</ele><time>2026-04-06T09:30:19.747Z</time></trkpt><trkpt lat="44.0447595" lon="9.9688731"><ele>241.0</ele><time>2026-04-06T09:30:24.76Z</time></trkpt><trkpt lat="44.0447564" lon="9.9689822"><ele>241.0</ele><time>2026-04-06T09:30:30.774Z</time></trkpt><trkpt lat="44.0447563" lon="9.9690736"><ele>241.00000000000003</ele><time>2026-04-06T09:30:35.766Z</time></trkpt><trkpt lat="44.044767" lon="9.9691688"><ele>241.0</ele><time>2026-04-06T09:30:41.762Z</time></trkpt><trkpt lat="44.0447867" lon="9.969261"><ele>241.0</ele><time>2026-04-06T09:30:47.777Z</time></trkpt><trkpt lat="44.0448154" lon="9.9693424"><ele>241.00000000000003</ele><time>2026-04-06T09:30:52.759Z</time></trkpt><trkpt lat="44.0448481" lon="9.9694205"><ele>241.0</ele><time>2026-04-06T09:30:58.663Z</time></trkpt><trkpt lat="44.044881" lon="9.9695191"><ele>241.0</ele><time>2026-04-06T09:31:13.766Z</time></trkpt><trkpt lat="44.0449094" lon="9.9696022"><ele>241.14285714285717</ele><time>2026-04-06T09:31:19.769Z</time></trkpt><trkpt lat="44.0449391" lon="9.9696933"><ele>241.2857142857143</ele><time>2026-04-06T09:31:25.717Z</time></trkpt><trkpt lat="44.044956" lon="9.9697913"><ele>241.42857142857144</ele><time>2026-04-06T09:31:31.76Z</time></trkpt><trkpt lat="44.0449851" lon="9.9698833"><ele>241.57142857142856</ele><time>2026-04-06T09:31:38.765Z</time></trkpt><trkpt lat="44.0449919" lon="9.9699787"><ele>241.7142857142857</ele><time>2026-04-06T09:31:46.764Z</time></trkpt><trkpt lat="44.0449973" lon="9.9700787"><ele>241.85714285714283</ele><time>2026-04-06T09:31:54.758Z</time></trkpt><trkpt lat="44.0449877" lon="9.9701751"><ele>242.0</ele><time>2026-04-06T09:32:02.757Z</time></trkpt><trkpt lat="44.0449948" lon="9.9702644"><ele>241.57142857142856</ele><time>2026-04-06T09:32:09.755Z</time></trkpt><trkpt lat="44.0449837" lon="9.9703589"><ele>241.1428571428571</ele><time>2026-04-06T09:32:17.762Z</time></trkpt><trkpt lat="44.0450023" lon="9.9704486"><ele>240.71428571428572</ele><time>2026-04-06T09:32:22.76Z</time></trkpt><trkpt lat="44.0449947" lon="9.9705507"><ele>240.28571428571428</ele><time>2026-04-06T09:32:28.763Z</time></trkpt><trkpt lat="44.0449488" lon="9.9706293"><ele>239.85714285714286</ele><time>2026-04-06T09:32:33.68Z</time></trkpt><trkpt lat="44.0449202" lon="9.9707084"><ele>239.42857142857144</ele><time>2026-04-06T09:32:48.763Z</time></trkpt><trkpt lat="44.0449235" lon="9.9708001"><ele>239.00000000000003</ele><time>2026-04-06T09:32:53.754Z</time></trkpt><trkpt lat="44.0449513" lon="9.970882"><ele>236.42857142857147</ele><time>2026-04-06T09:32:59.772Z</time></trkpt><trkpt lat="44.0449718" lon="9.9709789"><ele>233.85714285714286</ele><time>2026-04-06T09:33:05.759Z</time></trkpt><trkpt lat="44.0450183" lon="9.9710597"><ele>231.2857142857143</ele><time>2026-04-06T09:33:11.764Z</time></trkpt><trkpt lat="44.0450566" lon="9.9711438"><ele>228.71428571428572</ele><time>2026-04-06T09:33:17.757Z</time></trkpt><trkpt lat="44.0450804" lon="9.971242"><ele>226.14285714285717</ele><time>2026-04-06T09:33:24.659Z</time></trkpt><trkpt lat="44.0450871" lon="9.9713303"><ele>223.57142857142858</ele><time>2026-04-06T09:33:39.718Z</time></trkpt><trkpt lat="44.0450802" lon="9.9714214"><ele>221.0</ele><time>2026-04-06T09:33:43.787Z</time></trkpt><trkpt lat="44.0450669" lon="9.9715143"><ele>221.00000000000003</ele><time>2026-04-06T09:33:49.755Z</time></trkpt><trkpt lat="44.0450601" lon="9.971602"><ele>221.0</ele><time>2026-04-06T09:34:18.756Z</time></trkpt><trkpt lat="44.0450771" lon="9.9716934"><ele>221.0</ele><time>2026-04-06T09:34:22.716Z</time></trkpt><trkpt lat="44.0450872" lon="9.971791"><ele>221.0</ele><time>2026-04-06T09:34:27.76Z</time></trkpt><trkpt lat="44.0450922" lon="9.9718839"><ele>221.0</ele><time>2026-04-06T09:34:34.769Z</time></trkpt><trkpt lat="44.0450755" lon="9.9719772"><ele>221.00000000000003</ele><time>2026-04-06T09:34:40.767Z</time></trkpt><trkpt lat="44.0450398" lon="9.9720668"><ele>221.0</ele><time>2026-04-06T09:34:46.716Z</time></trkpt><trkpt lat="44.0450188" lon="9.9721565"><ele>220.71428571428572</ele><time>2026-04-06T09:35:06.773Z</time></trkpt><trkpt lat="44.0449957" lon="9.9722502"><ele>220.42857142857144</ele><time>2026-04-06T09:35:13.758Z</time></trkpt><trkpt lat="44.0450049" lon="9.9723398"><ele>220.14285714285717</ele><time>2026-04-06T09:35:18.724Z</time></trkpt><trkpt lat="44.0449948" lon="9.9724307"><ele>219.85714285714286</ele><time>2026-04-06T09:35:23.772Z</time></trkpt><trkpt lat="44.0449709" lon="9.9725333"><ele>219.57142857142856</ele><time>2026-04-06T09:35:28.662Z</time></trkpt><trkpt lat="44.0449446" lon="9.9726289"><ele>219.2857142857143</ele><time>2026-04-06T09:35:33.767Z</time></trkpt><trkpt lat="44.0449437" lon="9.9727264"><ele>219.0</ele><time>2026-04-06T09:35:41.762Z</time></trkpt><trkpt lat="44.0449418" lon="9.9728387"><ele>219.0</ele><time>2026-04-06T09:36:07.761Z</time></trkpt><trkpt lat="44.0449112" lon="9.9729217"><ele>219.0</ele><time>2026-04-06T09:36:13.72Z</time></trkpt><trkpt lat="44.0448913" lon="9.9730093"><ele>219.0</ele><time>2026-04-06T09:36:22.764Z</time></trkpt><trkpt lat="44.0448875" lon="9.9731225"><ele>219.0</ele><time>2026-04-06T09:36:34.768Z</time></trkpt><trkpt lat="44.0448937" lon="9.973213"><ele>219.0</ele><time>2026-04-06T09:36:38.764Z</time></trkpt><trkpt lat="44.044896" lon="9.9733059"><ele>219.0</ele><time>2026-04-06T09:36:50.77Z</time></trkpt><trkpt lat="44.0448761" lon="9.9733923"><ele>219.0</ele><time>2026-04-06T09:36:58.681Z</time></trkpt><trkpt lat="44.0448367" lon="9.9734733"><ele>217.2857142857143</ele><time>2026-04-06T09:37:09.765Z</time></trkpt><trkpt lat="44.0447978" lon="9.9735499"><ele>215.57142857142856</ele><time>2026-04-06T09:37:14.764Z</time></trkpt><trkpt lat="44.0447519" lon="9.9736121"><ele>213.85714285714286</ele><time>2026-04-06T09:37:20.738Z</time></trkpt><trkpt lat="44.0447012" lon="9.973669"><ele>212.14285714285717</ele><time>2026-04-06T09:37:27.767Z</time></trkpt><trkpt lat="44.0446546" lon="9.9737302"><ele>210.42857142857144</ele><time>2026-04-06T09:37:33.775Z</time></trkpt><trkpt lat="44.0446039" lon="9.9737902"><ele>208.71428571428572</ele><time>2026-04-06T09:37:39.693Z</time></trkpt><trkpt lat="44.0445559" lon="9.9738576"><ele>207.0</ele><time>2026-04-06T09:37:45.775Z</time></trkpt><trkpt lat="44.0445369" lon="9.9739503"><ele>207.00000000000003</ele><time>2026-04-06T09:37:51.765Z</time></trkpt><trkpt lat="44.0445147" lon="9.9740392"><ele>207.0</ele><time>2026-04-06T09:37:55.782Z</time></trkpt><trkpt lat="44.0444728" lon="9.9741112"><ele>207.0</ele><time>2026-04-06T09:38:00.754Z</time></trkpt><trkpt lat="44.0444179" lon="9.9741666"><ele>207.0</ele><time>2026-04-06T09:38:05.647Z</time></trkpt><trkpt lat="44.0444176" lon="9.9742544"><ele>207.0</ele><time>2026-04-06T09:38:16.755Z</time></trkpt><trkpt lat="44.0444819" lon="9.9742691"><ele>207.00000000000003</ele><time>2026-04-06T09:38:26.772Z</time></trkpt><trkpt lat="44.0445383" lon="9.9743194"><ele>207.0</ele><time>2026-04-06T09:38:33.746Z</time></trkpt><trkpt lat="44.0445992" lon="9.9743516"><ele>207.71428571428572</ele><time>2026-04-06T09:38:38.759Z</time></trkpt><trkpt lat="44.0446448" lon="9.9744225"><ele>208.42857142857144</ele><time>2026-04-06T09:38:42.756Z</time></trkpt><trkpt lat="44.0446858" lon="9.9744974"><ele>209.14285714285717</ele><time>2026-04-06T09:38:48.766Z</time></trkpt><trkpt lat="44.0447165" lon="9.9745749"><ele>209.85714285714286</ele><time>2026-04-06T09:39:00.768Z</time></trkpt><trkpt lat="44.0447541" lon="9.974661"><ele>210.57142857142856</ele><time>2026-04-06T09:39:05.783Z</time></trkpt><trkpt lat="44.0447675" lon="9.9747568"><ele>211.2857142857143</ele><time>2026-04-06T09:39:11.764Z</time></trkpt><trkpt lat="44.044783" lon="9.9748466"><ele>212.0</ele><time>2026-04-06T09:39:17.753Z</time></trkpt><trkpt lat="44.0448311" lon="9.9749255"><ele>212.0</ele><time>2026-04-06T09:39:25.768Z</time></trkpt><trkpt lat="44.0448639" lon="9.9750179"><ele>212.0</ele><time>2026-04-06T09:39:31.767Z</time></trkpt><trkpt lat="44.0449077" lon="9.9750962"><ele>212.0</ele><time>2026-04-06T09:39:37.682Z</time></trkpt><trkpt lat="44.0449361" lon="9.9751856"><ele>212.0</ele><time>2026-04-06T09:39:42.762Z</time></trkpt><trkpt lat="44.044984" lon="9.9752565"><ele>212.0</ele><time>2026-04-06T09:39:47.769Z</time></trkpt><trkpt lat="44.0450266" lon="9.9753216"><ele>212.0</ele><time>2026-04-06T09:39:52.773Z</time></trkpt><trkpt lat="44.0450678" lon="9.9753945"><ele>212.0</ele><time>2026-04-06T09:39:58.689Z</time></trkpt><trkpt lat="44.0450947" lon="9.9754756"><ele>208.57142857142858</ele><time>2026-04-06T09:40:07.781Z</time></trkpt><trkpt lat="44.0451304" lon="9.9755563"><ele>205.14285714285714</ele><time>2026-04-06T09:40:19.759Z</time></trkpt><trkpt lat="44.0451562" lon="9.9756483"><ele>201.71428571428572</ele><time>2026-04-06T09:40:24.764Z</time></trkpt><trkpt lat="44.0451648" lon="9.975751"><ele>198.28571428571428</ele><time>2026-04-06T09:40:28.749Z</time></trkpt><trkpt lat="44.0451746" lon="9.9758527"><ele>194.85714285714283</ele><time>2026-04-06T09:40:33.757Z</time></trkpt><trkpt lat="44.0451614" lon="9.9759459"><ele>191.42857142857142</ele><time>2026-04-06T09:40:38.78Z</time></trkpt><trkpt lat="44.0451633" lon="9.9760392"><ele>188.0</ele><time>2026-04-06T09:40:44.792Z</time></trkpt><trkpt lat="44.0451473" lon="9.9761258"><ele>186.42857142857142</ele><time>2026-04-06T09:40:49.788Z</time></trkpt><trkpt lat="44.0451339" lon="9.9762199"><ele>184.85714285714283</ele><time>2026-04-06T09:40:55.706Z</time></trkpt><trkpt lat="44.0451075" lon="9.9763165"><ele>183.28571428571428</ele><time>2026-04-06T09:41:01.769Z</time></trkpt><trkpt lat="44.0450793" lon="9.9764027"><ele>181.71428571428572</ele><time>2026-04-06T09:41:08.787Z</time></trkpt><trkpt lat="44.0450505" lon="9.9764987"><ele>180.14285714285714</ele><time>2026-04-06T09:41:15.775Z</time></trkpt><trkpt lat="44.0450341" lon="9.9765834"><ele>178.57142857142858</ele><time>2026-04-06T09:41:28.756Z</time></trkpt><trkpt lat="44.0450177" lon="9.9766767"><ele>177.0</ele><time>2026-04-06T09:41:46.759Z</time></trkpt><trkpt lat="44.0450142" lon="9.9767663"><ele>176.71428571428572</ele><time>2026-04-06T09:41:58.767Z</time></trkpt><trkpt lat="44.0449924" lon="9.9768698"><ele>176.42857142857142</ele><time>2026-04-06T09:42:02.764Z</time></trkpt><trkpt lat="44.0449571" lon="9.9769671"><ele>176.14285714285714</ele><time>2026-04-06T09:42:06.768Z</time></trkpt><trkpt lat="44.0449238" lon="9.9770415"><ele>175.85714285714286</ele><time>2026-04-06T09:42:10.678Z</time></trkpt><trkpt lat="44.0448868" lon="9.9771238"><ele>175.57142857142856</ele><time>2026-04-06T09:42:14.727Z</time></trkpt><trkpt lat="44.0448405" lon="9.9772059"><ele>175.28571428571428</ele><time>2026-04-06T09:42:19.742Z</time></trkpt><trkpt lat="44.0448229" lon="9.9772969"><ele>175.0</ele><time>2026-04-06T09:42:31.781Z</time></trkpt><trkpt lat="44.0447966" lon="9.9773828"><ele>175.0</ele><time>2026-04-06T09:42:41.739Z</time></trkpt><trkpt lat="44.0447607" lon="9.9774666"><ele>175.0</ele><time>2026-04-06T09:42:48.763Z</time></trkpt><trkpt lat="44.0447378" lon="9.9775631"><ele>175.0</ele><time>2026-04-06T09:43:07.754Z</time></trkpt><trkpt lat="44.0446953" lon="9.9776783"><ele>175.0</ele><time>2026-04-06T09:43:31.744Z</time></trkpt><trkpt lat="44.0446191" lon="9.9777924"><ele>175.0</ele><time>2026-04-06T09:44:02.752Z</time></trkpt><trkpt lat="44.0445882" lon="9.9778992"><ele>175.0</ele><time>2026-04-06T09:44:30.766Z</time></trkpt><trkpt lat="44.0446161" lon="9.9779803"><ele>172.28571428571428</ele><time>2026-04-06T09:44:36.759Z</time></trkpt><trkpt lat="44.044629" lon="9.9780696"><ele>169.57142857142856</ele><time>2026-04-06T09:44:42.758Z</time></trkpt><trkpt lat="44.0446653" lon="9.9781441"><ele>166.85714285714286</ele><time>2026-04-06T09:44:50.717Z</time></trkpt><trkpt lat="44.0447793" lon="9.9781136"><ele>164.14285714285714</ele><time>2026-04-06T09:45:19.705Z</time></trkpt><trkpt lat="44.0448155" lon="9.9781884"><ele>161.42857142857142</ele><time>2026-04-06T09:45:44.786Z</time></trkpt><trkpt lat="44.0448139" lon="9.9782761"><ele>158.71428571428572</ele><time>2026-04-06T09:45:53.753Z</time></trkpt><trkpt lat="44.0447784" lon="9.978357"><ele>156.0</ele><time>2026-04-06T09:46:09.769Z</time></trkpt><trkpt lat="44.0447084" lon="9.9783937"><ele>152.85714285714286</ele><time>2026-04-06T09:46:15.658Z</time></trkpt><trkpt lat="44.0446353" lon="9.9784049"><ele>149.7142857142857</ele><time>2026-04-06T09:46:20.752Z</time></trkpt><trkpt lat="44.044569" lon="9.9784013"><ele>146.57142857142856</ele><time>2026-04-06T09:46:25.754Z</time></trkpt><trkpt lat="44.0445039" lon="9.9784072"><ele>143.42857142857144</ele><time>2026-04-06T09:46:30.77Z</time></trkpt><trkpt lat="44.0444389" lon="9.9784211"><ele>140.28571428571428</ele><time>2026-04-06T09:46:37.756Z</time></trkpt><trkpt lat="44.0443834" lon="9.978466"><ele>137.14285714285714</ele><time>2026-04-06T09:46:42.788Z</time></trkpt><trkpt lat="44.0443255" lon="9.9785215"><ele>134.0</ele><time>2026-04-06T09:46:50.759Z</time></trkpt><trkpt lat="44.0442863" lon="9.9785905"><ele>134.0</ele><time>2026-04-06T09:46:56.774Z</time></trkpt><trkpt lat="44.0442407" lon="9.9786509"><ele>134.0</ele><time>2026-04-06T09:47:01.72Z</time></trkpt><trkpt lat="44.0441973" lon="9.9787324"><ele>134.0</ele><time>2026-04-06T09:47:07.759Z</time></trkpt><trkpt lat="44.0441777" lon="9.9788165"><ele>134.0</ele><time>2026-04-06T09:47:13.793Z</time></trkpt><trkpt lat="44.0441416" lon="9.978895"><ele>134.0</ele><time>2026-04-06T09:47:21.699Z</time></trkpt><trkpt lat="44.0441014" lon="9.978969"><ele>134.0</ele><time>2026-04-06T09:47:28.779Z</time></trkpt><trkpt lat="44.0440425" lon="9.9790253"><ele>134.0</ele><time>2026-04-06T09:47:33.76Z</time></trkpt><trkpt lat="44.0439749" lon="9.979082"><ele>132.71428571428572</ele><time>2026-04-06T09:47:46.805Z</time></trkpt><trkpt lat="44.0439402" lon="9.9791555"><ele>131.42857142857142</ele><time>2026-04-06T09:47:55.762Z</time></trkpt><trkpt lat="44.0439299" lon="9.9792442"><ele>130.14285714285714</ele><time>2026-04-06T09:48:19.775Z</time></trkpt><trkpt lat="44.043929" lon="9.9793417"><ele>128.85714285714286</ele><time>2026-04-06T09:48:28.758Z</time></trkpt><trkpt lat="44.0439234" lon="9.9794397"><ele>127.57142857142858</ele><time>2026-04-06T09:48:36.759Z</time></trkpt><trkpt lat="44.043932" lon="9.9795415"><ele>126.28571428571428</ele><time>2026-04-06T09:48:42.772Z</time></trkpt><trkpt lat="44.0439055" lon="9.97964"><ele>125.0</ele><time>2026-04-06T09:48:46.766Z</time></trkpt><trkpt lat="44.043897" lon="9.9797337"><ele>125.0</ele><time>2026-04-06T09:48:50.775Z</time></trkpt><trkpt lat="44.0438599" lon="9.9798174"><ele>125.0</ele><time>2026-04-06T09:49:13.773Z</time></trkpt><trkpt lat="44.0438556" lon="9.9799205"><ele>125.0</ele><time>2026-04-06T09:49:19.701Z</time></trkpt><trkpt lat="44.0438716" lon="9.980019"><ele>125.0</ele><time>2026-04-06T09:49:42.759Z</time></trkpt><trkpt lat="44.0438817" lon="9.9801226"><ele>125.0</ele><time>2026-04-06T09:49:59.767Z</time></trkpt><trkpt lat="44.0438599" lon="9.9802191"><ele>125.0</ele><time>2026-04-06T09:50:03.77Z</time></trkpt><trkpt lat="44.0438335" lon="9.9803003"><ele>125.0</ele><time>2026-04-06T09:50:08.774Z</time></trkpt><trkpt lat="44.0438398" lon="9.9804043"><ele>121.28571428571428</ele><time>2026-04-06T09:50:19.78Z</time></trkpt><trkpt lat="44.0438641" lon="9.9804896"><ele>117.57142857142858</ele><time>2026-04-06T09:50:27.719Z</time></trkpt><trkpt lat="44.0438835" lon="9.9805803"><ele>113.85714285714286</ele><time>2026-04-06T09:50:38.752Z</time></trkpt><trkpt lat="44.0438341" lon="9.9806485"><ele>110.14285714285714</ele><time>2026-04-06T09:51:07.745Z</time></trkpt><trkpt lat="44.0437871" lon="9.9807092"><ele>106.42857142857142</ele><time>2026-04-06T09:51:22.75Z</time></trkpt><trkpt lat="44.0437313" lon="9.9807638"><ele>102.71428571428572</ele><time>2026-04-06T09:51:43.732Z</time></trkpt><trkpt lat="44.0436674" lon="9.9807676"><ele>99.0</ele><time>2026-04-06T09:51:50.75Z</time></trkpt><trkpt lat="44.0436325" lon="9.9806917"><ele>99.0</ele><time>2026-04-06T09:52:08.67Z</time></trkpt><trkpt lat="44.0435693" lon="9.9807061"><ele>99.0</ele><time>2026-04-06T09:52:24.757Z</time></trkpt><trkpt lat="44.043505" lon="9.9806789"><ele>99.0</ele><time>2026-04-06T09:52:29.751Z</time></trkpt><trkpt lat="44.0434344" lon="9.9806756"><ele>99.0</ele><time>2026-04-06T09:52:42.758Z</time></trkpt><trkpt lat="44.043367" lon="9.9806654"><ele>99.0</ele><time>2026-04-06T09:52:46.762Z</time></trkpt><trkpt lat="44.043303" lon="9.9806578"><ele>99.0</ele><time>2026-04-06T09:52:50.756Z</time></trkpt><trkpt lat="44.0432258" lon="9.9806294"><ele>99.0</ele><time>2026-04-06T09:52:59.758Z</time></trkpt><trkpt lat="44.0431662" lon="9.9805851"><ele>97.57142857142857</ele><time>2026-04-06T09:53:05.763Z</time></trkpt><trkpt lat="44.0431091" lon="9.9805359"><ele>96.14285714285714</ele><time>2026-04-06T09:53:15.749Z</time></trkpt><trkpt lat="44.043047" lon="9.9805153"><ele>94.71428571428571</ele><time>2026-04-06T09:53:24.786Z</time></trkpt><trkpt lat="44.0429829" lon="9.9805022"><ele>93.28571428571428</ele><time>2026-04-06T09:53:31.758Z</time></trkpt><trkpt lat="44.0429136" lon="9.9804741"><ele>91.85714285714286</ele><time>2026-04-06T09:53:37.771Z</time></trkpt><trkpt lat="44.0428501" lon="9.9804639"><ele>90.42857142857142</ele><time>2026-04-06T09:53:42.749Z</time></trkpt><trkpt lat="44.0427856" lon="9.9804394"><ele>89.0</ele><time>2026-04-06T09:53:48.664Z</time></trkpt><trkpt lat="44.0427288" lon="9.9803967"><ele>88.99999999999999</ele><time>2026-04-06T09:53:53.756Z</time></trkpt><trkpt lat="44.0426806" lon="9.9803327"><ele>89.0</ele><time>2026-04-06T09:53:58.722Z</time></trkpt><trkpt lat="44.042626" lon="9.9802699"><ele>89.0</ele><time>2026-04-06T09:54:04.704Z</time></trkpt><trkpt lat="44.0425643" lon="9.9802143"><ele>89.0</ele><time>2026-04-06T09:54:10.756Z</time></trkpt><trkpt lat="44.0424934" lon="9.9802086"><ele>89.0</ele><time>2026-04-06T09:54:15.762Z</time></trkpt><trkpt lat="44.0424282" lon="9.9801667"><ele>88.99999999999999</ele><time>2026-04-06T09:54:20.755Z</time></trkpt><trkpt lat="44.0423612" lon="9.9801187"><ele>89.0</ele><time>2026-04-06T09:54:26.75Z</time></trkpt><trkpt lat="44.0422974" lon="9.9800971"><ele>87.99999999999999</ele><time>2026-04-06T09:54:32.767Z</time></trkpt><trkpt lat="44.0422305" lon="9.9800859"><ele>87.0</ele><time>2026-04-06T09:54:38.754Z</time></trkpt><trkpt lat="44.0421533" lon="9.9801018"><ele>86.0</ele><time>2026-04-06T09:54:43.77Z</time></trkpt><trkpt lat="44.0420816" lon="9.9800925"><ele>85.0</ele><time>2026-04-06T09:54:48.762Z</time></trkpt><trkpt lat="44.0420175" lon="9.9800822"><ele>84.0</ele><time>2026-04-06T09:54:52.759Z</time></trkpt><trkpt lat="44.0419455" lon="9.9800842"><ele>82.99999999999999</ele><time>2026-04-06T09:54:57.755Z</time></trkpt><trkpt lat="44.0418821" lon="9.9800827"><ele>82.0</ele><time>2026-04-06T09:55:03.771Z</time></trkpt><trkpt lat="44.0418133" lon="9.9800988"><ele>81.99999999999999</ele><time>2026-04-06T09:55:09.758Z</time></trkpt><trkpt lat="44.0417425" lon="9.9801263"><ele>82.0</ele><time>2026-04-06T09:55:14.773Z</time></trkpt><trkpt lat="44.0416738" lon="9.9801456"><ele>82.0</ele><time>2026-04-06T09:55:19.771Z</time></trkpt><trkpt lat="44.0416108" lon="9.9801736"><ele>82.0</ele><time>2026-04-06T09:55:24.752Z</time></trkpt><trkpt lat="44.0415419" lon="9.9801769"><ele>82.0</ele><time>2026-04-06T09:55:29.78Z</time></trkpt><trkpt lat="44.0414796" lon="9.9801911"><ele>81.99999999999999</ele><time>2026-04-06T09:55:34.741Z</time></trkpt><trkpt lat="44.0414057" lon="9.9801917"><ele>82.0</ele><time>2026-04-06T09:55:40.751Z</time></trkpt><trkpt lat="44.0413452" lon="9.980217"><ele>82.99999999999999</ele><time>2026-04-06T09:55:45.769Z</time></trkpt><trkpt lat="44.0412741" lon="9.9802543"><ele>84.0</ele><time>2026-04-06T09:55:52.747Z</time></trkpt><trkpt lat="44.0412127" lon="9.9802967"><ele>85.0</ele><time>2026-04-06T09:55:59.755Z</time></trkpt><trkpt lat="44.0411453" lon="9.9803243"><ele>86.0</ele><time>2026-04-06T09:56:05.76Z</time></trkpt><trkpt lat="44.041077" lon="9.9803398"><ele>87.0</ele><time>2026-04-06T09:56:10.756Z</time></trkpt><trkpt lat="44.0410091" lon="9.9803546"><ele>87.99999999999999</ele><time>2026-04-06T09:56:15.754Z</time></trkpt><trkpt lat="44.0409434" lon="9.9803816"><ele>89.0</ele><time>2026-04-06T09:56:24.815Z</time></trkpt><trkpt lat="44.0408806" lon="9.9803937"><ele>88.99999999999999</ele><time>2026-04-06T09:56:30.756Z</time></trkpt><trkpt lat="44.0408228" lon="9.9804295"><ele>89.0</ele><time>2026-04-06T09:56:36.753Z</time></trkpt><trkpt lat="44.0407665" lon="9.9804845"><ele>89.0</ele><time>2026-04-06T09:56:45.754Z</time></trkpt><trkpt lat="44.0406958" lon="9.980497"><ele>89.0</ele><time>2026-04-06T09:56:50.756Z</time></trkpt><trkpt lat="44.0406269" lon="9.9805115"><ele>89.0</ele><time>2026-04-06T09:56:55.756Z</time></trkpt><trkpt lat="44.0405631" lon="9.9805192"><ele>88.99999999999999</ele><time>2026-04-06T09:57:01.769Z</time></trkpt><trkpt lat="44.0404972" lon="9.9805505"><ele>89.0</ele><time>2026-04-06T09:57:07.761Z</time></trkpt><trkpt lat="44.0404338" lon="9.9805918"><ele>89.99999999999999</ele><time>2026-04-06T09:57:13.74Z</time></trkpt><trkpt lat="44.0403772" lon="9.9806514"><ele>91.0</ele><time>2026-04-06T09:57:19.758Z</time></trkpt><trkpt lat="44.0403061" lon="9.9807038"><ele>92.0</ele><time>2026-04-06T09:57:25.79Z</time></trkpt><trkpt lat="44.0402436" lon="9.9807472"><ele>93.0</ele><time>2026-04-06T09:57:32.765Z</time></trkpt><trkpt lat="44.0401715" lon="9.9807566"><ele>94.0</ele><time>2026-04-06T09:57:47.754Z</time></trkpt><trkpt lat="44.0400969" lon="9.9807738"><ele>94.99999999999999</ele><time>2026-04-06T09:57:53.742Z</time></trkpt><trkpt lat="44.0400208" lon="9.9807958"><ele>96.0</ele><time>2026-04-06T09:57:59.759Z</time></trkpt><trkpt lat="44.039941" lon="9.9808008"><ele>93.42857142857142</ele><time>2026-04-06T09:58:04.702Z</time></trkpt><trkpt lat="44.0398737" lon="9.9807731"><ele>90.85714285714286</ele><time>2026-04-06T09:58:11.764Z</time></trkpt><trkpt lat="44.0398071" lon="9.9807753"><ele>88.28571428571428</ele><time>2026-04-06T09:58:25.748Z</time></trkpt><trkpt lat="44.0397353" lon="9.9807846"><ele>85.71428571428571</ele><time>2026-04-06T09:58:37.763Z</time></trkpt><trkpt lat="44.0396768" lon="9.9807517"><ele>83.14285714285714</ele><time>2026-04-06T09:58:42.782Z</time></trkpt><trkpt lat="44.0396353" lon="9.9806836"><ele>80.57142857142857</ele><time>2026-04-06T09:58:50.777Z</time></trkpt><trkpt lat="44.0395806" lon="9.9806114"><ele>78.0</ele><time>2026-04-06T09:58:55.758Z</time></trkpt><trkpt lat="44.0395361" lon="9.9805459"><ele>78.0</ele><time>2026-04-06T09:59:00.782Z</time></trkpt><trkpt lat="44.0394897" lon="9.9804724"><ele>78.0</ele><time>2026-04-06T09:59:07.737Z</time></trkpt><trkpt lat="44.039449" lon="9.9803924"><ele>78.0</ele><time>2026-04-06T09:59:13.777Z</time></trkpt><trkpt lat="44.0394091" lon="9.9803143"><ele>78.0</ele><time>2026-04-06T09:59:20.737Z</time></trkpt><trkpt lat="44.0393545" lon="9.980258"><ele>78.0</ele><time>2026-04-06T09:59:28.756Z</time></trkpt><trkpt lat="44.0393061" lon="9.9801872"><ele>78.0</ele><time>2026-04-06T09:59:36.657Z</time></trkpt><trkpt lat="44.0392574" lon="9.9801219"><ele>78.0</ele><time>2026-04-06T09:59:45.756Z</time></trkpt><trkpt lat="44.0392055" lon="9.9800659"><ele>77.57142857142857</ele><time>2026-04-06T09:59:52.682Z</time></trkpt><trkpt lat="44.0391507" lon="9.9800145"><ele>77.14285714285714</ele><time>2026-04-06T09:59:58.776Z</time></trkpt><trkpt lat="44.0390815" lon="9.9799821"><ele>76.71428571428571</ele><time>2026-04-06T10:00:04.757Z</time></trkpt><trkpt lat="44.0390201" lon="9.9799516"><ele>76.28571428571428</ele><time>2026-04-06T10:00:10.66Z</time></trkpt><trkpt lat="44.0389633" lon="9.9799067"><ele>75.85714285714286</ele><time>2026-04-06T10:00:16.753Z</time></trkpt><trkpt lat="44.0389046" lon="9.9798651"><ele>75.42857142857142</ele><time>2026-04-06T10:00:22.755Z</time></trkpt><trkpt lat="44.0388522" lon="9.9798136"><ele>75.0</ele><time>2026-04-06T10:00:28.769Z</time></trkpt><trkpt lat="44.0387978" lon="9.9797608"><ele>74.99999999999999</ele><time>2026-04-06T10:00:35.764Z</time></trkpt><trkpt lat="44.0387406" lon="9.9797073"><ele>75.0</ele><time>2026-04-06T10:00:41.75Z</time></trkpt><trkpt lat="44.0386844" lon="9.9796652"><ele>75.0</ele><time>2026-04-06T10:00:47.735Z</time></trkpt><trkpt lat="44.0386168" lon="9.9796365"><ele>75.0</ele><time>2026-04-06T10:00:53.809Z</time></trkpt><trkpt lat="44.0385516" lon="9.9796124"><ele>75.0</ele><time>2026-04-06T10:00:59.769Z</time></trkpt><trkpt lat="44.0384884" lon="9.9795695"><ele>74.99999999999999</ele><time>2026-04-06T10:01:05.757Z</time></trkpt><trkpt lat="44.0384259" lon="9.9795249"><ele>75.0</ele><time>2026-04-06T10:01:11.787Z</time></trkpt><trkpt lat="44.0383746" lon="9.9794652"><ele>74.99999999999999</ele><time>2026-04-06T10:01:17.763Z</time></trkpt><trkpt lat="44.0383128" lon="9.9794219"><ele>75.0</ele><time>2026-04-06T10:01:29.755Z</time></trkpt><trkpt lat="44.0382598" lon="9.9793593"><ele>75.0</ele><time>2026-04-06T10:01:37.684Z</time></trkpt><trkpt lat="44.038238" lon="9.9792721"><ele>75.0</ele><time>2026-04-06T10:01:43.753Z</time></trkpt><trkpt lat="44.0382237" lon="9.9791764"><ele>75.0</ele><time>2026-04-06T10:01:49.778Z</time></trkpt><trkpt lat="44.0381911" lon="9.9790968"><ele>74.99999999999999</ele><time>2026-04-06T10:02:00.764Z</time></trkpt><trkpt lat="44.0381714" lon="9.9790048"><ele>75.0</ele><time>2026-04-06T10:02:07.666Z</time></trkpt><trkpt lat="44.038148" lon="9.9789149"><ele>71.99999999999999</ele><time>2026-04-06T10:02:14.754Z</time></trkpt><trkpt lat="44.0380924" lon="9.9788652"><ele>69.0</ele><time>2026-04-06T10:02:25.748Z</time></trkpt><trkpt lat="44.0380571" lon="9.9787907"><ele>66.0</ele><time>2026-04-06T10:02:32.704Z</time></trkpt><trkpt lat="44.0379928" lon="9.9787481"><ele>63.0</ele><time>2026-04-06T10:02:39.751Z</time></trkpt><trkpt lat="44.0379456" lon="9.9786797"><ele>60.0</ele><time>2026-04-06T10:02:46.746Z</time></trkpt><trkpt lat="44.0378855" lon="9.9786226"><ele>57.0</ele><time>2026-04-06T10:02:52.761Z</time></trkpt><trkpt lat="44.0378251" lon="9.9785771"><ele>54.0</ele><time>2026-04-06T10:02:58.77Z</time></trkpt><trkpt lat="44.0377607" lon="9.978598"><ele>54.0</ele><time>2026-04-06T10:03:17.753Z</time></trkpt><trkpt lat="44.0376859" lon="9.9785542"><ele>54.0</ele><time>2026-04-06T10:03:25.759Z</time></trkpt><trkpt lat="44.0376189" lon="9.9785528"><ele>54.0</ele><time>2026-04-06T10:03:30.753Z</time></trkpt><trkpt lat="44.0375545" lon="9.9785509"><ele>54.0</ele><time>2026-04-06T10:03:37.784Z</time></trkpt><trkpt lat="44.0374896" lon="9.9785356"><ele>54.0</ele><time>2026-04-06T10:03:52.761Z</time></trkpt><trkpt lat="44.037427" lon="9.9784988"><ele>54.0</ele><time>2026-04-06T10:04:04.759Z</time></trkpt><trkpt lat="44.0373768" lon="9.9784423"><ele>54.0</ele><time>2026-04-06T10:04:10.758Z</time></trkpt><trkpt lat="44.0373463" lon="9.9783619"><ele>52.857142857142854</ele><time>2026-04-06T10:04:18.767Z</time></trkpt><trkpt lat="44.0373084" lon="9.9782903"><ele>51.71428571428571</ele><time>2026-04-06T10:04:23.706Z</time></trkpt><trkpt lat="44.0372734" lon="9.978216"><ele>50.57142857142857</ele><time>2026-04-06T10:04:30.737Z</time></trkpt><trkpt lat="44.0372709" lon="9.9781215"><ele>49.42857142857143</ele><time>2026-04-06T10:04:41.75Z</time></trkpt><trkpt lat="44.0372588" lon="9.9780345"><ele>48.285714285714285</ele><time>2026-04-06T10:04:51.75Z</time></trkpt><trkpt lat="44.0372471" lon="9.9779375"><ele>47.142857142857146</ele><time>2026-04-06T10:04:57.755Z</time></trkpt><trkpt lat="44.0372584" lon="9.9778482"><ele>46.0</ele><time>2026-04-06T10:05:03.765Z</time></trkpt><trkpt lat="44.0372938" lon="9.9777266"><ele>46.0</ele><time>2026-04-06T10:05:54.76Z</time></trkpt><trkpt lat="44.0373293" lon="9.977646"><ele>46.0</ele><time>2026-04-06T10:06:00.759Z</time></trkpt><trkpt lat="44.0373489" lon="9.9775526"><ele>46.0</ele><time>2026-04-06T10:06:07.759Z</time></trkpt><trkpt lat="44.0373698" lon="9.9774567"><ele>46.0</ele><time>2026-04-06T10:06:14.748Z</time></trkpt><trkpt lat="44.0373724" lon="9.9773648"><ele>46.0</ele><time>2026-04-06T10:06:21.748Z</time></trkpt><trkpt lat="44.0373468" lon="9.9772731"><ele>46.0</ele><time>2026-04-06T10:06:34.758Z</time></trkpt><trkpt lat="44.0373517" lon="9.9771845"><ele>46.0</ele><time>2026-04-06T10:06:39.74Z</time></trkpt><trkpt lat="44.037377" lon="9.9770999"><ele>46.285714285714285</ele><time>2026-04-06T10:06:45.683Z</time></trkpt><trkpt lat="44.0373689" lon="9.9770062"><ele>46.57142857142857</ele><time>2026-04-06T10:06:56.76Z</time></trkpt><trkpt lat="44.0373383" lon="9.9769239"><ele>46.857142857142854</ele><time>2026-04-06T10:07:11.689Z</time></trkpt><trkpt lat="44.0373134" lon="9.9768414"><ele>47.14285714285714</ele><time>2026-04-06T10:07:16.763Z</time></trkpt><trkpt lat="44.0372718" lon="9.9767638"><ele>47.42857142857143</ele><time>2026-04-06T10:07:26.75Z</time></trkpt><trkpt lat="44.0372446" lon="9.97667"><ele>47.71428571428571</ele><time>2026-04-06T10:07:32.759Z</time></trkpt><trkpt lat="44.0372481" lon="9.9765753"><ele>48.0</ele><time>2026-04-06T10:07:39.744Z</time></trkpt><trkpt lat="44.0372298" lon="9.9764885"><ele>47.99999999999999</ele><time>2026-04-06T10:07:46.76Z</time></trkpt><trkpt lat="44.0372149" lon="9.9763972"><ele>48.0</ele><time>2026-04-06T10:07:58.755Z</time></trkpt><trkpt lat="44.0371902" lon="9.976314"><ele>48.0</ele><time>2026-04-06T10:08:13.766Z</time></trkpt><trkpt lat="44.0371825" lon="9.976227"><ele>48.0</ele><time>2026-04-06T10:08:23.765Z</time></trkpt><trkpt lat="44.0371591" lon="9.9761348"><ele>48.0</ele><time>2026-04-06T10:08:31.72Z</time></trkpt><trkpt lat="44.0371219" lon="9.976052"><ele>47.99999999999999</ele><time>2026-04-06T10:08:37.772Z</time></trkpt><trkpt lat="44.0370968" lon="9.9759636"><ele>48.0</ele><time>2026-04-06T10:08:49.75Z</time></trkpt><trkpt lat="44.0370604" lon="9.9758883"><ele>48.0</ele><time>2026-04-06T10:08:55.765Z</time></trkpt><trkpt lat="44.0370387" lon="9.9757957"><ele>59.0</ele><time>2026-04-06T10:09:04.765Z</time></trkpt><trkpt lat="44.0369976" lon="9.9757188"><ele>59.0</ele><time>2026-04-06T10:09:11.759Z</time></trkpt><trkpt lat="44.03694" lon="9.9756626"><ele>59.0</ele><time>2026-04-06T10:09:19.758Z</time></trkpt><trkpt lat="44.0368756" lon="9.9756174"><ele>59.0</ele><time>2026-04-06T10:09:26.758Z</time></trkpt><trkpt lat="44.0368216" lon="9.9755719"><ele>59.0</ele><time>2026-04-06T10:09:42.764Z</time></trkpt><trkpt lat="44.0367863" lon="9.9754831"><ele>59.0</ele><time>2026-04-06T10:10:15.757Z</time></trkpt></trkseg><trkseg><trkpt lat="44.0368115" lon="9.9756003"><ele>59.00000000000001</ele><time>2026-04-06T10:31:13.993Z</time></trkpt><trkpt lat="44.0367967" lon="9.975488"><ele>59.0</ele><time>2026-04-06T10:31:58.993Z</time></trkpt><trkpt lat="44.0367187" lon="9.9753759"><ele>59.0</ele><time>2026-04-06T10:32:53.955Z</time></trkpt><trkpt lat="44.0366714" lon="9.9753033"><ele>59.0</ele><time>2026-04-06T10:33:01.988Z</time></trkpt><trkpt lat="44.0366107" lon="9.9752551"><ele>59.00000000000001</ele><time>2026-04-06T10:33:33.978Z</time></trkpt><trkpt lat="44.0365503" lon="9.9752198"><ele>59.0</ele><time>2026-04-06T10:33:45.991Z</time></trkpt><trkpt lat="44.0364924" lon="9.9751622"><ele>57.857142857142854</ele><time>2026-04-06T10:33:51.988Z</time></trkpt><trkpt lat="44.0364397" lon="9.9752206"><ele>56.714285714285715</ele><time>2026-04-06T10:34:31.992Z</time></trkpt><trkpt lat="44.0364699" lon="9.9751394"><ele>55.57142857142857</ele><time>2026-04-06T10:39:26.993Z</time></trkpt><trkpt lat="44.036508" lon="9.9749999"><ele>54.42857142857143</ele><time>2026-04-06T10:39:54.869Z</time></trkpt><trkpt lat="44.0365241" lon="9.9749138"><ele>53.28571428571429</ele><time>2026-04-06T10:40:42.979Z</time></trkpt><trkpt lat="44.0365913" lon="9.974873"><ele>52.142857142857146</ele><time>2026-04-06T10:40:50.002Z</time></trkpt><trkpt lat="44.0366493" lon="9.9748178"><ele>51.0</ele><time>2026-04-06T10:40:57.9Z</time></trkpt><trkpt lat="44.0367209" lon="9.9747793"><ele>51.0</ele><time>2026-04-06T10:41:12.99Z</time></trkpt><trkpt lat="44.0368009" lon="9.9746995"><ele>51.0</ele><time>2026-04-06T10:41:32.995Z</time></trkpt><trkpt lat="44.0368585" lon="9.9746509"><ele>51.0</ele><time>2026-04-06T10:41:36.991Z</time></trkpt><trkpt lat="44.0369039" lon="9.9745895"><ele>51.0</ele><time>2026-04-06T10:41:44.99Z</time></trkpt><trkpt lat="44.0369441" lon="9.974517"><ele>51.0</ele><time>2026-04-06T10:41:54.976Z</time></trkpt><trkpt lat="44.0370091" lon="9.9744972"><ele>51.0</ele><time>2026-04-06T10:42:03.999Z</time></trkpt><trkpt lat="44.0370738" lon="9.974469"><ele>51.0</ele><time>2026-04-06T10:42:08.982Z</time></trkpt><trkpt lat="44.0371264" lon="9.974414"><ele>51.0</ele><time>2026-04-06T10:42:17.982Z</time></trkpt><trkpt lat="44.0371726" lon="9.9743459"><ele>51.0</ele><time>2026-04-06T10:42:23.969Z</time></trkpt><trkpt lat="44.0372339" lon="9.97431"><ele>51.0</ele><time>2026-04-06T10:42:28.984Z</time></trkpt><trkpt lat="44.0372889" lon="9.9742516"><ele>51.0</ele><time>2026-04-06T10:42:38.99Z</time></trkpt><trkpt lat="44.037339" lon="9.9741824"><ele>51.0</ele><time>2026-04-06T10:42:47.996Z</time></trkpt><trkpt lat="44.0373888" lon="9.9741219"><ele>51.0</ele><time>2026-04-06T10:42:53.991Z</time></trkpt><trkpt lat="44.037442" lon="9.9740665"><ele>51.0</ele><time>2026-04-06T10:42:59.99Z</time></trkpt><trkpt lat="44.0374865" lon="9.9739955"><ele>53.57142857142857</ele><time>2026-04-06T10:43:05.994Z</time></trkpt><trkpt lat="44.0375512" lon="9.9739601"><ele>56.142857142857146</ele><time>2026-04-06T10:43:10.999Z</time></trkpt><trkpt lat="44.0376163" lon="9.9739399"><ele>58.714285714285715</ele><time>2026-04-06T10:43:15.988Z</time></trkpt><trkpt lat="44.0376824" lon="9.97393"><ele>61.28571428571429</ele><time>2026-04-06T10:43:22.002Z</time></trkpt><trkpt lat="44.0377368" lon="9.9738697"><ele>63.85714285714286</ele><time>2026-04-06T10:43:28.977Z</time></trkpt><trkpt lat="44.0377942" lon="9.9738254"><ele>66.42857142857143</ele><time>2026-04-06T10:43:56.99Z</time></trkpt><trkpt lat="44.037847" lon="9.9737736"><ele>69.0</ele><time>2026-04-06T10:44:07.945Z</time></trkpt><trkpt lat="44.0378885" lon="9.9736921"><ele>69.0</ele><time>2026-04-06T10:44:13.993Z</time></trkpt><trkpt lat="44.0379464" lon="9.9736478"><ele>69.0</ele><time>2026-04-06T10:44:18.808Z</time></trkpt><trkpt lat="44.0380017" lon="9.9735989"><ele>69.0</ele><time>2026-04-06T10:44:29.985Z</time></trkpt><trkpt lat="44.0380392" lon="9.9735266"><ele>69.0</ele><time>2026-04-06T10:44:35.986Z</time></trkpt><trkpt lat="44.0380687" lon="9.9734415"><ele>69.0</ele><time>2026-04-06T10:44:41.995Z</time></trkpt><trkpt lat="44.0381007" lon="9.9733588"><ele>69.0</ele><time>2026-04-06T10:44:48.985Z</time></trkpt><trkpt lat="44.0381438" lon="9.9732899"><ele>69.0</ele><time>2026-04-06T10:44:58.999Z</time></trkpt><trkpt lat="44.0381619" lon="9.9732019"><ele>71.28571428571429</ele><time>2026-04-06T10:45:18.991Z</time></trkpt><trkpt lat="44.0381826" lon="9.9731143"><ele>73.57142857142858</ele><time>2026-04-06T10:45:28.989Z</time></trkpt><trkpt lat="44.0382785" lon="9.9730299"><ele>75.85714285714286</ele><time>2026-04-06T10:46:19.91Z</time></trkpt><trkpt lat="44.038349" lon="9.9730083"><ele>78.14285714285714</ele><time>2026-04-06T10:46:51.978Z</time></trkpt><trkpt lat="44.0383805" lon="9.9729295"><ele>80.42857142857142</ele><time>2026-04-06T10:47:41.983Z</time></trkpt><trkpt lat="44.0383677" lon="9.9728424"><ele>82.71428571428572</ele><time>2026-04-06T10:47:49.982Z</time></trkpt><trkpt lat="44.0383581" lon="9.9727529"><ele>85.0</ele><time>2026-04-06T10:47:58.978Z</time></trkpt><trkpt lat="44.0383463" lon="9.9726558"><ele>85.0</ele><time>2026-04-06T10:48:19.972Z</time></trkpt><trkpt lat="44.0384122" lon="9.9726225"><ele>85.0</ele><time>2026-04-06T10:48:54.984Z</time></trkpt><trkpt lat="44.0384765" lon="9.9726425"><ele>85.0</ele><time>2026-04-06T10:49:30.993Z</time></trkpt><trkpt lat="44.0385648" lon="9.9726715"><ele>85.0</ele><time>2026-04-06T10:49:40.993Z</time></trkpt><trkpt lat="44.0386518" lon="9.9726919"><ele>85.0</ele><time>2026-04-06T10:50:09.962Z</time></trkpt><trkpt lat="44.038711" lon="9.9727334"><ele>85.0</ele><time>2026-04-06T10:50:47.991Z</time></trkpt><trkpt lat="44.0387723" lon="9.972688"><ele>85.0</ele><time>2026-04-06T10:51:05.971Z</time></trkpt><trkpt lat="44.0388268" lon="9.9726378"><ele>85.0</ele><time>2026-04-06T10:51:13.984Z</time></trkpt><trkpt lat="44.0388871" lon="9.972588"><ele>85.0</ele><time>2026-04-06T10:51:21.986Z</time></trkpt><trkpt lat="44.0389504" lon="9.9725785"><ele>85.0</ele><time>2026-04-06T10:51:28.983Z</time></trkpt><trkpt lat="44.0390505" lon="9.9725798"><ele>85.0</ele><time>2026-04-06T10:52:26.979Z</time></trkpt><trkpt lat="44.0390492" lon="9.9726845"><ele>85.0</ele><time>2026-04-06T10:52:58.998Z</time></trkpt><trkpt lat="44.0391036" lon="9.9727287"><ele>85.0</ele><time>2026-04-06T10:54:39.983Z</time></trkpt><trkpt lat="44.0392037" lon="9.9727381"><ele>91.28571428571429</ele><time>2026-04-06T10:55:37.985Z</time></trkpt><trkpt lat="44.0392151" lon="9.9726514"><ele>97.57142857142856</ele><time>2026-04-06T10:56:03.995Z</time></trkpt><trkpt lat="44.0392499" lon="9.9725784"><ele>103.85714285714285</ele><time>2026-04-06T10:56:29.927Z</time></trkpt><trkpt lat="44.0393119" lon="9.9725575"><ele>110.14285714285714</ele><time>2026-04-06T10:57:12.982Z</time></trkpt><trkpt lat="44.0393561" lon="9.972623"><ele>116.42857142857142</ele><time>2026-04-06T10:57:42.999Z</time></trkpt><trkpt lat="44.0394018" lon="9.9725608"><ele>122.7142857142857</ele><time>2026-04-06T10:58:22.966Z</time></trkpt><trkpt lat="44.0394135" lon="9.9724366"><ele>129.0</ele><time>2026-04-06T10:58:39.984Z</time></trkpt><trkpt lat="44.0394401" lon="9.9723474"><ele>130.28571428571428</ele><time>2026-04-06T10:59:12.988Z</time></trkpt><trkpt lat="44.0394778" lon="9.9722672"><ele>131.57142857142856</ele><time>2026-04-06T10:59:18.916Z</time></trkpt><trkpt lat="44.0395129" lon="9.9721935"><ele>132.85714285714286</ele><time>2026-04-06T10:59:33.995Z</time></trkpt><trkpt lat="44.0395669" lon="9.9721379"><ele>134.14285714285714</ele><time>2026-04-06T10:59:47.986Z</time></trkpt><trkpt lat="44.0396097" lon="9.9720657"><ele>135.42857142857144</ele><time>2026-04-06T11:00:00.009Z</time></trkpt><trkpt lat="44.0396414" lon="9.9719822"><ele>136.71428571428572</ele><time>2026-04-06T11:00:06.992Z</time></trkpt><trkpt lat="44.0396646" lon="9.9718948"><ele>138.0</ele><time>2026-04-06T11:00:29.932Z</time></trkpt><trkpt lat="44.0396814" lon="9.9718085"><ele>138.0</ele><time>2026-04-06T11:00:36.99Z</time></trkpt><trkpt lat="44.0397132" lon="9.9717169"><ele>138.0</ele><time>2026-04-06T11:00:43.01Z</time></trkpt><trkpt lat="44.0397382" lon="9.9716351"><ele>138.0</ele><time>2026-04-06T11:00:49.007Z</time></trkpt><trkpt lat="44.0397802" lon="9.9715676"><ele>138.0</ele><time>2026-04-06T11:00:55.007Z</time></trkpt><trkpt lat="44.0398184" lon="9.9714876"><ele>138.0</ele><time>2026-04-06T11:00:59.908Z</time></trkpt><trkpt lat="44.0398806" lon="9.9714334"><ele>138.0</ele><time>2026-04-06T11:01:18.947Z</time></trkpt><trkpt lat="44.0399298" lon="9.9713711"><ele>138.0</ele><time>2026-04-06T11:01:25.998Z</time></trkpt><trkpt lat="44.0399871" lon="9.971314"><ele>143.14285714285714</ele><time>2026-04-06T11:01:36.993Z</time></trkpt><trkpt lat="44.0400213" lon="9.9712365"><ele>148.2857142857143</ele><time>2026-04-06T11:01:43.001Z</time></trkpt><trkpt lat="44.0400438" lon="9.9711532"><ele>153.42857142857144</ele><time>2026-04-06T11:01:50.993Z</time></trkpt><trkpt lat="44.0400857" lon="9.9710835"><ele>158.57142857142858</ele><time>2026-04-06T11:02:12.013Z</time></trkpt><trkpt lat="44.040088" lon="9.9709848"><ele>163.71428571428572</ele><time>2026-04-06T11:02:39.972Z</time></trkpt><trkpt lat="44.0400958" lon="9.9708967"><ele>168.85714285714286</ele><time>2026-04-06T11:02:47.005Z</time></trkpt><trkpt lat="44.040078" lon="9.9708062"><ele>174.0</ele><time>2026-04-06T11:02:56.916Z</time></trkpt><trkpt lat="44.0400625" lon="9.9707211"><ele>174.0</ele><time>2026-04-06T11:03:02.97Z</time></trkpt><trkpt lat="44.0400414" lon="9.9706332"><ele>174.0</ele><time>2026-04-06T11:03:09.982Z</time></trkpt><trkpt lat="44.0400698" lon="9.970542"><ele>174.0</ele><time>2026-04-06T11:03:15.987Z</time></trkpt><trkpt lat="44.0400149" lon="9.970476"><ele>174.0</ele><time>2026-04-06T11:03:45.993Z</time></trkpt><trkpt lat="44.0399667" lon="9.9704004"><ele>174.0</ele><time>2026-04-06T11:03:52.99Z</time></trkpt><trkpt lat="44.0399362" lon="9.9703155"><ele>174.0</ele><time>2026-04-06T11:03:58.949Z</time></trkpt><trkpt lat="44.0399262" lon="9.9702179"><ele>174.0</ele><time>2026-04-06T11:04:09.001Z</time></trkpt><trkpt lat="44.0399063" lon="9.9701194"><ele>165.14285714285714</ele><time>2026-04-06T11:04:15.998Z</time></trkpt><trkpt lat="44.039885" lon="9.9700269"><ele>156.28571428571428</ele><time>2026-04-06T11:04:23.994Z</time></trkpt><trkpt lat="44.039859" lon="9.9699431"><ele>147.42857142857144</ele><time>2026-04-06T11:04:30.912Z</time></trkpt><trkpt lat="44.0398393" lon="9.969858"><ele>138.57142857142856</ele><time>2026-04-06T11:04:36.993Z</time></trkpt><trkpt lat="44.0398312" lon="9.9697665"><ele>129.71428571428572</ele><time>2026-04-06T11:04:43.996Z</time></trkpt><trkpt lat="44.0398357" lon="9.9696739"><ele>120.85714285714286</ele><time>2026-04-06T11:04:49.989Z</time></trkpt><trkpt lat="44.0398288" lon="9.9695856"><ele>112.0</ele><time>2026-04-06T11:04:55.983Z</time></trkpt><trkpt lat="44.0398353" lon="9.9694871"><ele>112.0</ele><time>2026-04-06T11:05:03.911Z</time></trkpt><trkpt lat="44.039891" lon="9.969428"><ele>112.0</ele><time>2026-04-06T11:05:11.991Z</time></trkpt><trkpt lat="44.0399464" lon="9.9693774"><ele>112.0</ele><time>2026-04-06T11:05:19.994Z</time></trkpt><trkpt lat="44.0399626" lon="9.9692742"><ele>112.0</ele><time>2026-04-06T11:05:48.987Z</time></trkpt><trkpt lat="44.0399412" lon="9.9691788"><ele>112.0</ele><time>2026-04-06T11:05:56.996Z</time></trkpt><trkpt lat="44.0399455" lon="9.96909"><ele>112.0</ele><time>2026-04-06T11:06:07.991Z</time></trkpt><trkpt lat="44.0399568" lon="9.9689962"><ele>112.0</ele><time>2026-04-06T11:06:14.99Z</time></trkpt><trkpt lat="44.03995" lon="9.9689045"><ele>112.85714285714286</ele><time>2026-04-06T11:06:20.996Z</time></trkpt><trkpt lat="44.0399142" lon="9.9688176"><ele>113.71428571428572</ele><time>2026-04-06T11:06:38.999Z</time></trkpt><trkpt lat="44.039907" lon="9.968729"><ele>114.57142857142857</ele><time>2026-04-06T11:06:46.992Z</time></trkpt><trkpt lat="44.0399138" lon="9.9686328"><ele>115.42857142857143</ele><time>2026-04-06T11:06:53.995Z</time></trkpt><trkpt lat="44.0398766" lon="9.9685537"><ele>116.28571428571429</ele><time>2026-04-06T11:07:00.995Z</time></trkpt><trkpt lat="44.0398226" lon="9.9685012"><ele>117.14285714285714</ele><time>2026-04-06T11:07:09.001Z</time></trkpt><trkpt lat="44.0397604" lon="9.9684677"><ele>118.0</ele><time>2026-04-06T11:07:18.017Z</time></trkpt><trkpt lat="44.0397097" lon="9.9684098"><ele>122.0</ele><time>2026-04-06T11:07:43.018Z</time></trkpt><trkpt lat="44.0396469" lon="9.9683437"><ele>126.0</ele><time>2026-04-06T11:08:05.897Z</time></trkpt><trkpt lat="44.0396005" lon="9.968271"><ele>130.0</ele><time>2026-04-06T11:08:14.028Z</time></trkpt><trkpt lat="44.0395774" lon="9.9681794"><ele>134.0</ele><time>2026-04-06T11:08:28.948Z</time></trkpt><trkpt lat="44.0395657" lon="9.9680925"><ele>138.0</ele><time>2026-04-06T11:08:36.007Z</time></trkpt><trkpt lat="44.0395483" lon="9.9680067"><ele>142.0</ele><time>2026-04-06T11:08:41.99Z</time></trkpt><trkpt lat="44.0395243" lon="9.9679065"><ele>146.0</ele><time>2026-04-06T11:08:47.996Z</time></trkpt><trkpt lat="44.0394903" lon="9.9678276"><ele>146.0</ele><time>2026-04-06T11:08:53.024Z</time></trkpt><trkpt lat="44.0394671" lon="9.9677359"><ele>146.0</ele><time>2026-04-06T11:09:00.012Z</time></trkpt><trkpt lat="44.0394415" lon="9.9676414"><ele>146.0</ele><time>2026-04-06T11:09:07.004Z</time></trkpt><trkpt lat="44.0394214" lon="9.9675528"><ele>146.0</ele><time>2026-04-06T11:09:12.983Z</time></trkpt><trkpt lat="44.039397" lon="9.9674636"><ele>146.0</ele><time>2026-04-06T11:09:18.996Z</time></trkpt><trkpt lat="44.0394014" lon="9.9673711"><ele>146.0</ele><time>2026-04-06T11:09:34.009Z</time></trkpt><trkpt lat="44.0394416" lon="9.9672626"><ele>146.0</ele><time>2026-04-06T11:10:15.979Z</time></trkpt><trkpt lat="44.039452" lon="9.9671747"><ele>149.0</ele><time>2026-04-06T11:10:45.994Z</time></trkpt><trkpt lat="44.0394324" lon="9.9670789"><ele>152.0</ele><time>2026-04-06T11:10:54.995Z</time></trkpt><trkpt lat="44.0394882" lon="9.9669953"><ele>155.0</ele><time>2026-04-06T11:11:24.002Z</time></trkpt><trkpt lat="44.0395409" lon="9.9669413"><ele>158.0</ele><time>2026-04-06T11:11:30.997Z</time></trkpt><trkpt lat="44.039603" lon="9.9669175"><ele>161.0</ele><time>2026-04-06T11:11:42.026Z</time></trkpt><trkpt lat="44.0396512" lon="9.9669775"><ele>164.0</ele><time>2026-04-06T11:11:58.996Z</time></trkpt><trkpt lat="44.0397257" lon="9.9670366"><ele>167.0</ele><time>2026-04-06T11:12:40.994Z</time></trkpt><trkpt lat="44.039859" lon="9.9670534"><ele>167.0</ele><time>2026-04-06T11:14:07.913Z</time></trkpt><trkpt lat="44.0399163" lon="9.9670121"><ele>167.0</ele><time>2026-04-06T11:14:43.992Z</time></trkpt><trkpt lat="44.0399905" lon="9.9669666"><ele>167.0</ele><time>2026-04-06T11:15:01.996Z</time></trkpt><trkpt lat="44.0400499" lon="9.9669363"><ele>167.0</ele><time>2026-04-06T11:15:13.998Z</time></trkpt><trkpt lat="44.0401542" lon="9.9668515"><ele>167.0</ele><time>2026-04-06T11:15:49Z</time></trkpt><trkpt lat="44.0402445" lon="9.9668511"><ele>167.0</ele><time>2026-04-06T11:16:50.965Z</time></trkpt><trkpt lat="44.0403109" lon="9.9668166"><ele>172.71428571428572</ele><time>2026-04-06T11:17:03.01Z</time></trkpt><trkpt lat="44.0403786" lon="9.966815"><ele>178.42857142857144</ele><time>2026-04-06T11:17:08.987Z</time></trkpt><trkpt lat="44.0404396" lon="9.9667642"><ele>184.14285714285717</ele><time>2026-04-06T11:17:24.992Z</time></trkpt><trkpt lat="44.0404943" lon="9.9667176"><ele>189.85714285714286</ele><time>2026-04-06T11:17:30.99Z</time></trkpt><trkpt lat="44.0405439" lon="9.9666624"><ele>195.57142857142858</ele><time>2026-04-06T11:17:39.997Z</time></trkpt><trkpt lat="44.0405912" lon="9.9666039"><ele>201.2857142857143</ele><time>2026-04-06T11:17:47.004Z</time></trkpt><trkpt lat="44.040655" lon="9.9665787"><ele>207.0</ele><time>2026-04-06T11:17:53.014Z</time></trkpt><trkpt lat="44.0407074" lon="9.9665135"><ele>207.00000000000003</ele><time>2026-04-06T11:17:59.956Z</time></trkpt><trkpt lat="44.0407598" lon="9.9664508"><ele>207.0</ele><time>2026-04-06T11:18:04.994Z</time></trkpt><trkpt lat="44.0408116" lon="9.9663981"><ele>207.0</ele><time>2026-04-06T11:18:10.004Z</time></trkpt><trkpt lat="44.0408583" lon="9.9663301"><ele>207.0</ele><time>2026-04-06T11:18:16.002Z</time></trkpt><trkpt lat="44.0409162" lon="9.9662878"><ele>207.0</ele><time>2026-04-06T11:18:21.992Z</time></trkpt><trkpt lat="44.0409678" lon="9.9662341"><ele>207.00000000000003</ele><time>2026-04-06T11:18:27.001Z</time></trkpt><trkpt lat="44.0410307" lon="9.9661888"><ele>207.0</ele><time>2026-04-06T11:18:33.003Z</time></trkpt><trkpt lat="44.0410944" lon="9.9661498"><ele>207.71428571428572</ele><time>2026-04-06T11:18:47.993Z</time></trkpt><trkpt lat="44.0411364" lon="9.9660739"><ele>208.42857142857144</ele><time>2026-04-06T11:18:56.013Z</time></trkpt><trkpt lat="44.0411865" lon="9.9660167"><ele>209.14285714285717</ele><time>2026-04-06T11:19:02.977Z</time></trkpt><trkpt lat="44.0412445" lon="9.9659684"><ele>209.85714285714286</ele><time>2026-04-06T11:19:07.964Z</time></trkpt><trkpt lat="44.0412934" lon="9.9659057"><ele>210.57142857142856</ele><time>2026-04-06T11:19:15.977Z</time></trkpt><trkpt lat="44.0413544" lon="9.965869"><ele>211.2857142857143</ele><time>2026-04-06T11:19:23.978Z</time></trkpt><trkpt lat="44.0414194" lon="9.9658334"><ele>212.0</ele><time>2026-04-06T11:19:30.973Z</time></trkpt><trkpt lat="44.0414813" lon="9.9657826"><ele>212.0</ele><time>2026-04-06T11:19:40.983Z</time></trkpt><trkpt lat="44.0415368" lon="9.9657362"><ele>212.0</ele><time>2026-04-06T11:19:46.963Z</time></trkpt><trkpt lat="44.0415962" lon="9.9656978"><ele>212.0</ele><time>2026-04-06T11:19:54Z</time></trkpt><trkpt lat="44.0416565" lon="9.9656385"><ele>212.0</ele><time>2026-04-06T11:20:02.986Z</time></trkpt><trkpt lat="44.0417107" lon="9.9655712"><ele>212.0</ele><time>2026-04-06T11:20:10.002Z</time></trkpt><trkpt lat="44.0417661" lon="9.9655164"><ele>212.0</ele><time>2026-04-06T11:20:16.01Z</time></trkpt><trkpt lat="44.0418111" lon="9.9654353"><ele>212.0</ele><time>2026-04-06T11:20:23.988Z</time></trkpt><trkpt lat="44.0418524" lon="9.9653664"><ele>215.85714285714286</ele><time>2026-04-06T11:20:29.999Z</time></trkpt><trkpt lat="44.0418862" lon="9.9652831"><ele>219.71428571428572</ele><time>2026-04-06T11:20:35.992Z</time></trkpt><trkpt lat="44.0419228" lon="9.9652072"><ele>223.57142857142858</ele><time>2026-04-06T11:20:42.931Z</time></trkpt><trkpt lat="44.0419631" lon="9.9651339"><ele>227.42857142857144</ele><time>2026-04-06T11:20:48.979Z</time></trkpt><trkpt lat="44.0420092" lon="9.965072"><ele>231.28571428571428</ele><time>2026-04-06T11:21:22.005Z</time></trkpt><trkpt lat="44.0420443" lon="9.9649921"><ele>235.14285714285717</ele><time>2026-04-06T11:21:32.984Z</time></trkpt><trkpt lat="44.0420928" lon="9.9649334"><ele>239.00000000000003</ele><time>2026-04-06T11:21:43.01Z</time></trkpt><trkpt lat="44.04216" lon="9.9649111"><ele>239.00000000000003</ele><time>2026-04-06T11:21:54.001Z</time></trkpt><trkpt lat="44.0422241" lon="9.9649139"><ele>239.0</ele><time>2026-04-06T11:21:58.991Z</time></trkpt><trkpt lat="44.0422967" lon="9.9649058"><ele>239.00000000000003</ele><time>2026-04-06T11:22:06.005Z</time></trkpt><trkpt lat="44.0423625" lon="9.9648826"><ele>239.00000000000003</ele><time>2026-04-06T11:22:13.995Z</time></trkpt><trkpt lat="44.0424346" lon="9.9648691"><ele>239.0</ele><time>2026-04-06T11:22:21.95Z</time></trkpt><trkpt lat="44.0425046" lon="9.9648775"><ele>239.00000000000003</ele><time>2026-04-06T11:22:28.997Z</time></trkpt><trkpt lat="44.0425734" lon="9.9648718"><ele>239.00000000000003</ele><time>2026-04-06T11:22:37Z</time></trkpt><trkpt lat="44.0426368" lon="9.9648428"><ele>241.42857142857144</ele><time>2026-04-06T11:22:58.996Z</time></trkpt><trkpt lat="44.0427098" lon="9.9648235"><ele>243.85714285714286</ele><time>2026-04-06T11:23:34.95Z</time></trkpt><trkpt lat="44.0427802" lon="9.9648083"><ele>246.28571428571428</ele><time>2026-04-06T11:23:39.988Z</time></trkpt><trkpt lat="44.0428437" lon="9.9647898"><ele>248.71428571428572</ele><time>2026-04-06T11:23:44.984Z</time></trkpt><trkpt lat="44.0429142" lon="9.9647591"><ele>251.1428571428571</ele><time>2026-04-06T11:23:51.985Z</time></trkpt><trkpt lat="44.042969" lon="9.964714"><ele>253.57142857142856</ele><time>2026-04-06T11:23:56.981Z</time></trkpt><trkpt lat="44.0430271" lon="9.9646656"><ele>256.0</ele><time>2026-04-06T11:24:01.999Z</time></trkpt><trkpt lat="44.0430188" lon="9.9645747"><ele>256.0</ele><time>2026-04-06T11:24:17.012Z</time></trkpt><trkpt lat="44.0430208" lon="9.9644782"><ele>255.99999999999997</ele><time>2026-04-06T11:24:23.992Z</time></trkpt><trkpt lat="44.0430487" lon="9.9643844"><ele>256.0</ele><time>2026-04-06T11:24:30.91Z</time></trkpt><trkpt lat="44.0430669" lon="9.9642945"><ele>256.0</ele><time>2026-04-06T11:24:37Z</time></trkpt><trkpt lat="44.0430144" lon="9.964224"><ele>255.99999999999997</ele><time>2026-04-06T11:24:44Z</time></trkpt><trkpt lat="44.042958" lon="9.9641736"><ele>256.0</ele><time>2026-04-06T11:24:48.916Z</time></trkpt><trkpt lat="44.0428972" lon="9.96413"><ele>256.0</ele><time>2026-04-06T11:24:54.914Z</time></trkpt><trkpt lat="44.0428565" lon="9.9640514"><ele>256.1428571428571</ele><time>2026-04-06T11:25:03.002Z</time></trkpt><trkpt lat="44.0428046" lon="9.9639835"><ele>256.2857142857143</ele><time>2026-04-06T11:25:09.911Z</time></trkpt><trkpt lat="44.0427526" lon="9.9639055"><ele>256.42857142857144</ele><time>2026-04-06T11:25:19.034Z</time></trkpt><trkpt lat="44.0426882" lon="9.9638581"><ele>256.57142857142856</ele><time>2026-04-06T11:25:24.994Z</time></trkpt><trkpt lat="44.0426261" lon="9.9638295"><ele>256.7142857142857</ele><time>2026-04-06T11:25:30.995Z</time></trkpt><trkpt lat="44.0425628" lon="9.9637977"><ele>256.85714285714283</ele><time>2026-04-06T11:25:36.971Z</time></trkpt><trkpt lat="44.0424916" lon="9.9637898"><ele>257.0</ele><time>2026-04-06T11:25:41.994Z</time></trkpt><trkpt lat="44.0424311" lon="9.9637602"><ele>253.14285714285714</ele><time>2026-04-06T11:25:57.97Z</time></trkpt><trkpt lat="44.0423544" lon="9.9637589"><ele>249.28571428571428</ele><time>2026-04-06T11:26:06.002Z</time></trkpt><trkpt lat="44.0422874" lon="9.9637368"><ele>245.42857142857142</ele><time>2026-04-06T11:26:10.984Z</time></trkpt><trkpt lat="44.0422184" lon="9.9636884"><ele>241.57142857142856</ele><time>2026-04-06T11:26:54.995Z</time></trkpt><trkpt lat="44.0421577" lon="9.963663"><ele>237.71428571428572</ele><time>2026-04-06T11:27:00.906Z</time></trkpt><trkpt lat="44.0421036" lon="9.9636001"><ele>233.85714285714283</ele><time>2026-04-06T11:27:11.996Z</time></trkpt><trkpt lat="44.0420664" lon="9.9635138"><ele>229.99999999999997</ele><time>2026-04-06T11:27:17.994Z</time></trkpt><trkpt lat="44.0420658" lon="9.9634114"><ele>229.99999999999997</ele><time>2026-04-06T11:27:23.993Z</time></trkpt><trkpt lat="44.0420864" lon="9.9633284"><ele>230.0</ele><time>2026-04-06T11:27:28.947Z</time></trkpt><trkpt lat="44.0420657" lon="9.9632392"><ele>229.99999999999997</ele><time>2026-04-06T11:27:35.991Z</time></trkpt><trkpt lat="44.0420847" lon="9.9633255"><ele>229.99999999999997</ele><time>2026-04-06T11:31:44.994Z</time></trkpt><trkpt lat="44.0420906" lon="9.9634247"><ele>230.0</ele><time>2026-04-06T11:31:46.995Z</time></trkpt><trkpt lat="44.0421092" lon="9.9635097"><ele>229.99999999999997</ele><time>2026-04-06T11:31:54.003Z</time></trkpt><trkpt lat="44.0421409" lon="9.9635914"><ele>229.99999999999997</ele><time>2026-04-06T11:32:01.993Z</time></trkpt><trkpt lat="44.0421871" lon="9.9636519"><ele>229.99999999999997</ele><time>2026-04-06T11:32:09.99Z</time></trkpt><trkpt lat="44.0422546" lon="9.9636901"><ele>230.0</ele><time>2026-04-06T11:32:19.021Z</time></trkpt><trkpt lat="44.0423152" lon="9.9637484"><ele>229.99999999999997</ele><time>2026-04-06T11:32:39.949Z</time></trkpt><trkpt lat="44.0423855" lon="9.9637526"><ele>229.99999999999997</ele><time>2026-04-06T11:32:46.006Z</time></trkpt><trkpt lat="44.0424548" lon="9.9637508"><ele>230.0</ele><time>2026-04-06T11:32:51.949Z</time></trkpt><trkpt lat="44.042525" lon="9.9637705"><ele>229.99999999999997</ele><time>2026-04-06T11:32:58.023Z</time></trkpt><trkpt lat="44.04259" lon="9.96382"><ele>229.99999999999997</ele><time>2026-04-06T11:33:03.998Z</time></trkpt><trkpt lat="44.042653" lon="9.9638464"><ele>233.71428571428567</ele><time>2026-04-06T11:33:10.021Z</time></trkpt><trkpt lat="44.042721" lon="9.9638863"><ele>237.42857142857142</ele><time>2026-04-06T11:33:15.996Z</time></trkpt><trkpt lat="44.0427841" lon="9.963914"><ele>241.1428571428571</ele><time>2026-04-06T11:33:21.988Z</time></trkpt><trkpt lat="44.0428431" lon="9.9639748"><ele>244.85714285714283</ele><time>2026-04-06T11:33:34.011Z</time></trkpt><trkpt lat="44.0428925" lon="9.9640326"><ele>248.57142857142856</ele><time>2026-04-06T11:33:39.002Z</time></trkpt><trkpt lat="44.0429321" lon="9.964112"><ele>252.28571428571428</ele><time>2026-04-06T11:33:44.006Z</time></trkpt><trkpt lat="44.0429572" lon="9.9641924"><ele>256.0</ele><time>2026-04-06T11:33:50.003Z</time></trkpt><trkpt lat="44.0430214" lon="9.9642354"><ele>256.0</ele><time>2026-04-06T11:33:56.928Z</time></trkpt><trkpt lat="44.0430645" lon="9.9643172"><ele>255.99999999999997</ele><time>2026-04-06T11:34:03.048Z</time></trkpt><trkpt lat="44.043061" lon="9.9644109"><ele>256.0</ele><time>2026-04-06T11:34:10.997Z</time></trkpt><trkpt lat="44.043027" lon="9.9644974"><ele>256.0</ele><time>2026-04-06T11:34:19.032Z</time></trkpt><trkpt lat="44.0430309" lon="9.96459"><ele>255.99999999999997</ele><time>2026-04-06T11:34:26.994Z</time></trkpt><trkpt lat="44.0430703" lon="9.9646594"><ele>256.0</ele><time>2026-04-06T11:34:33.966Z</time></trkpt><trkpt lat="44.0431409" lon="9.9646705"><ele>256.0</ele><time>2026-04-06T11:34:41.999Z</time></trkpt><trkpt lat="44.0432001" lon="9.9647013"><ele>256.0</ele><time>2026-04-06T11:34:46.992Z</time></trkpt><trkpt lat="44.0432526" lon="9.9647503"><ele>255.99999999999997</ele><time>2026-04-06T11:34:50.992Z</time></trkpt><trkpt lat="44.0433124" lon="9.9648093"><ele>256.0</ele><time>2026-04-06T11:34:55.948Z</time></trkpt><trkpt lat="44.0433773" lon="9.9648351"><ele>256.0</ele><time>2026-04-06T11:35:01.966Z</time></trkpt><trkpt lat="44.0434533" lon="9.9648308"><ele>255.99999999999997</ele><time>2026-04-06T11:35:17.021Z</time></trkpt><trkpt lat="44.0435286" lon="9.9648252"><ele>256.0</ele><time>2026-04-06T11:35:21.997Z</time></trkpt><trkpt lat="44.0435869" lon="9.9647841"><ele>256.0</ele><time>2026-04-06T11:35:25.984Z</time></trkpt><trkpt lat="44.0436501" lon="9.9647218"><ele>256.57142857142856</ele><time>2026-04-06T11:35:31.004Z</time></trkpt><trkpt lat="44.0437103" lon="9.9646658"><ele>257.1428571428571</ele><time>2026-04-06T11:35:36.866Z</time></trkpt><trkpt lat="44.0437747" lon="9.9646775"><ele>257.7142857142857</ele><time>2026-04-06T11:35:44.021Z</time></trkpt><trkpt lat="44.0438496" lon="9.9646778"><ele>258.2857142857143</ele><time>2026-04-06T11:35:49.994Z</time></trkpt><trkpt lat="44.0439111" lon="9.9646557"><ele>258.8571428571429</ele><time>2026-04-06T11:35:55.997Z</time></trkpt><trkpt lat="44.0439655" lon="9.9646043"><ele>259.42857142857144</ele><time>2026-04-06T11:36:00.953Z</time></trkpt><trkpt lat="44.044025" lon="9.9645741"><ele>260.0</ele><time>2026-04-06T11:36:06.029Z</time></trkpt><trkpt lat="44.0440808" lon="9.9646228"><ele>260.28571428571433</ele><time>2026-04-06T11:36:11.993Z</time></trkpt><trkpt lat="44.0441407" lon="9.9646545"><ele>260.57142857142856</ele><time>2026-04-06T11:36:19.015Z</time></trkpt><trkpt lat="44.0441998" lon="9.9647031"><ele>260.8571428571429</ele><time>2026-04-06T11:36:25.013Z</time></trkpt><trkpt lat="44.0442494" lon="9.964761"><ele>261.14285714285717</ele><time>2026-04-06T11:36:29.978Z</time></trkpt><trkpt lat="44.0443079" lon="9.9648172"><ele>261.42857142857144</ele><time>2026-04-06T11:36:36.995Z</time></trkpt><trkpt lat="44.0443387" lon="9.9649"><ele>261.7142857142857</ele><time>2026-04-06T11:36:42.988Z</time></trkpt><trkpt lat="44.0443591" lon="9.9649992"><ele>262.0</ele><time>2026-04-06T11:36:49Z</time></trkpt><trkpt lat="44.044386" lon="9.9650833"><ele>262.0</ele><time>2026-04-06T11:36:54.012Z</time></trkpt><trkpt lat="44.044408" lon="9.965171"><ele>262.0</ele><time>2026-04-06T11:36:58.997Z</time></trkpt><trkpt lat="44.0444014" lon="9.9652699"><ele>262.0</ele><time>2026-04-06T11:37:04.97Z</time></trkpt><trkpt lat="44.0444248" lon="9.9653625"><ele>262.0</ele><time>2026-04-06T11:37:12.969Z</time></trkpt><trkpt lat="44.0444562" lon="9.9654493"><ele>262.0</ele><time>2026-04-06T11:37:17.997Z</time></trkpt><trkpt lat="44.0445096" lon="9.9655156"><ele>262.0</ele><time>2026-04-06T11:37:23.987Z</time></trkpt><trkpt lat="44.0445727" lon="9.965555"><ele>262.0</ele><time>2026-04-06T11:37:32.008Z</time></trkpt><trkpt lat="44.044638" lon="9.9655692"><ele>262.0</ele><time>2026-04-06T11:37:40.009Z</time></trkpt><trkpt lat="44.0446955" lon="9.9656342"><ele>262.0</ele><time>2026-04-06T11:37:48.011Z</time></trkpt><trkpt lat="44.0447561" lon="9.9656888"><ele>262.0</ele><time>2026-04-06T11:37:55.025Z</time></trkpt><trkpt lat="44.044818" lon="9.9657227"><ele>262.0</ele><time>2026-04-06T11:38:01.989Z</time></trkpt><trkpt lat="44.0448782" lon="9.9657717"><ele>262.0</ele><time>2026-04-06T11:38:07.989Z</time></trkpt><trkpt lat="44.0449428" lon="9.9658069"><ele>262.0</ele><time>2026-04-06T11:38:13.991Z</time></trkpt><trkpt lat="44.0450108" lon="9.9657931"><ele>262.0</ele><time>2026-04-06T11:38:20.99Z</time></trkpt><trkpt lat="44.0450731" lon="9.9657547"><ele>261.57142857142856</ele><time>2026-04-06T11:38:29.995Z</time></trkpt><trkpt lat="44.0451357" lon="9.9657278"><ele>261.14285714285717</ele><time>2026-04-06T11:38:35.996Z</time></trkpt><trkpt lat="44.0452019" lon="9.9657053"><ele>260.7142857142857</ele><time>2026-04-06T11:38:42.993Z</time></trkpt><trkpt lat="44.045265" lon="9.9656627"><ele>260.2857142857143</ele><time>2026-04-06T11:38:52.001Z</time></trkpt><trkpt lat="44.0453219" lon="9.9656112"><ele>259.8571428571429</ele><time>2026-04-06T11:38:58.004Z</time></trkpt><trkpt lat="44.0453655" lon="9.9655431"><ele>259.42857142857144</ele><time>2026-04-06T11:39:08.964Z</time></trkpt><trkpt lat="44.0454234" lon="9.9655012"><ele>259.0</ele><time>2026-04-06T11:39:16.008Z</time></trkpt><trkpt lat="44.0454889" lon="9.9654862"><ele>259.0</ele><time>2026-04-06T11:39:21.546Z</time></trkpt><trkpt lat="44.0455429" lon="9.9654404"><ele>259.0</ele><time>2026-04-06T11:39:29Z</time></trkpt><trkpt lat="44.0456127" lon="9.9654384"><ele>259.0</ele><time>2026-04-06T11:39:40.991Z</time></trkpt><trkpt lat="44.0456767" lon="9.9654285"><ele>259.0</ele><time>2026-04-06T11:39:48.999Z</time></trkpt><trkpt lat="44.0457151" lon="9.9654981"><ele>259.0</ele><time>2026-04-06T11:39:57.925Z</time></trkpt><trkpt lat="44.0457725" lon="9.9655365"><ele>259.0</ele><time>2026-04-06T11:40:09.009Z</time></trkpt><trkpt lat="44.0458234" lon="9.9654689"><ele>259.0</ele><time>2026-04-06T11:40:14.998Z</time></trkpt><trkpt lat="44.0458783" lon="9.9654059"><ele>259.57142857142856</ele><time>2026-04-06T11:40:20.97Z</time></trkpt><trkpt lat="44.0459304" lon="9.9653384"><ele>260.1428571428571</ele><time>2026-04-06T11:40:28.934Z</time></trkpt><trkpt lat="44.0459925" lon="9.9652934"><ele>260.7142857142857</ele><time>2026-04-06T11:40:34.994Z</time></trkpt><trkpt lat="44.046047" lon="9.965237"><ele>261.2857142857143</ele><time>2026-04-06T11:40:39.895Z</time></trkpt><trkpt lat="44.0461005" lon="9.9651803"><ele>261.85714285714283</ele><time>2026-04-06T11:40:46.997Z</time></trkpt><trkpt lat="44.0460981" lon="9.9650899"><ele>262.42857142857144</ele><time>2026-04-06T11:40:54.029Z</time></trkpt><trkpt lat="44.0461676" lon="9.9650487"><ele>263.0</ele><time>2026-04-06T11:41:00.991Z</time></trkpt><trkpt lat="44.0462349" lon="9.9650177"><ele>263.0</ele><time>2026-04-06T11:41:06.933Z</time></trkpt><trkpt lat="44.0462048" lon="9.9649376"><ele>263.0</ele><time>2026-04-06T11:41:17.995Z</time></trkpt><trkpt lat="44.0461841" lon="9.9648526"><ele>263.0</ele><time>2026-04-06T11:41:22.973Z</time></trkpt><trkpt lat="44.0461501" lon="9.9647692"><ele>263.0</ele><time>2026-04-06T11:41:28.999Z</time></trkpt><trkpt lat="44.0461301" lon="9.9646852"><ele>263.0</ele><time>2026-04-06T11:41:33.933Z</time></trkpt><trkpt lat="44.0460902" lon="9.9646022"><ele>263.0</ele><time>2026-04-06T11:41:38.998Z</time></trkpt><trkpt lat="44.0460552" lon="9.9645189"><ele>263.0</ele><time>2026-04-06T11:41:43.995Z</time></trkpt><trkpt lat="44.0460508" lon="9.9644248"><ele>263.0</ele><time>2026-04-06T11:41:51Z</time></trkpt><trkpt lat="44.0460998" lon="9.9643565"><ele>263.0</ele><time>2026-04-06T11:41:56.987Z</time></trkpt><trkpt lat="44.0461414" lon="9.9642822"><ele>263.0</ele><time>2026-04-06T11:42:02.997Z</time></trkpt><trkpt lat="44.0461721" lon="9.964201"><ele>263.0</ele><time>2026-04-06T11:42:07.997Z</time></trkpt><trkpt lat="44.0462189" lon="9.9641162"><ele>263.0</ele><time>2026-04-06T11:42:13.006Z</time></trkpt><trkpt lat="44.0462655" lon="9.9640444"><ele>263.0</ele><time>2026-04-06T11:42:17.998Z</time></trkpt><trkpt lat="44.0463191" lon="9.9639776"><ele>263.0</ele><time>2026-04-06T11:42:24.014Z</time></trkpt><trkpt lat="44.0463895" lon="9.9639386"><ele>261.85714285714283</ele><time>2026-04-06T11:42:37.005Z</time></trkpt><trkpt lat="44.0464025" lon="9.9638413"><ele>260.71428571428567</ele><time>2026-04-06T11:42:44Z</time></trkpt><trkpt lat="44.0464144" lon="9.9637528"><ele>259.57142857142856</ele><time>2026-04-06T11:42:49.035Z</time></trkpt><trkpt lat="44.0464775" lon="9.9637321"><ele>258.42857142857144</ele><time>2026-04-06T11:42:54.998Z</time></trkpt><trkpt lat="44.0465309" lon="9.9637821"><ele>257.28571428571433</ele><time>2026-04-06T11:43:00.01Z</time></trkpt><trkpt lat="44.0465809" lon="9.9638557"><ele>256.14285714285717</ele><time>2026-04-06T11:43:05.011Z</time></trkpt><trkpt lat="44.0466372" lon="9.9639225"><ele>255.0</ele><time>2026-04-06T11:43:10.989Z</time></trkpt><trkpt lat="44.0466885" lon="9.9639793"><ele>255.0</ele><time>2026-04-06T11:43:16.951Z</time></trkpt><trkpt lat="44.0467272" lon="9.9640579"><ele>255.0</ele><time>2026-04-06T11:43:22.967Z</time></trkpt><trkpt lat="44.0467829" lon="9.964119"><ele>255.0</ele><time>2026-04-06T11:43:28.993Z</time></trkpt><trkpt lat="44.0468397" lon="9.9641743"><ele>255.0</ele><time>2026-04-06T11:43:34.992Z</time></trkpt><trkpt lat="44.0468869" lon="9.9642354"><ele>260.0</ele><time>2026-04-06T11:43:40.964Z</time></trkpt></trkseg></trk></gpx>